<?xml version="1.0" encoding="UTF-8" standalone="no" ?>
<gpx xmlns="http://www.topografix.com/GPX/1/1" xmlns:xsi="http://www.w3.org/2001/XMLSchema-instance" xsi:schemaLocation="http://www.topografix.com/GPX/1/1 http://www.topografix.com/GPX/1/1/gpx.xsd" version="1.1" creator="VisuGPX - https://www.visugpx.com">
  <metadata>
    <name>Minerve Le Moulin d'Azan</name>
    <desc><![CDATA[La montée du plateau donne une ardeur nouvelle aux pieds et aux bâtons. vous mordrez la lavande et le romarin jusqu'au magnifique canyon. il faut chercher La Cesse, je n'ai pas trouvé  le barrage du moulin !... j'admire le feuillage qui tremble dans le ciel.
Photos: copiez collez...
http://vttolonzac.blogspot.fr/2014/11/le-moulin-dazan.html
]]></desc>
  </metadata>
  <trk>
    <name><![CDATA[10-NOV-14 17:03:19]]></name>
    <trkseg>
      <trkpt lat="43.35142" lon="2.7401">
        <ele>200.57</ele>
        <time>2014-11-10T12:54:06Z</time>
      </trkpt>
      <trkpt lat="43.35142" lon="2.7401">
        <ele>200.09</ele>
        <time>2014-11-10T12:54:07Z</time>
      </trkpt>
      <trkpt lat="43.35138" lon="2.7401">
        <ele>199.13</ele>
        <time>2014-11-10T12:54:17Z</time>
      </trkpt>
      <trkpt lat="43.35137" lon="2.74009">
        <ele>194.8</ele>
        <time>2014-11-10T12:54:26Z</time>
      </trkpt>
      <trkpt lat="43.35138" lon="2.7401">
        <ele>201.53</ele>
        <time>2014-11-10T12:54:27Z</time>
      </trkpt>
      <trkpt lat="43.35133" lon="2.73998">
        <ele>200.57</ele>
        <time>2014-11-10T12:54:44Z</time>
      </trkpt>
      <trkpt lat="43.35133" lon="2.74">
        <ele>200.57</ele>
        <time>2014-11-10T12:54:46Z</time>
      </trkpt>
      <trkpt lat="43.35133" lon="2.74011">
        <ele>199.13</ele>
        <time>2014-11-10T12:54:52Z</time>
      </trkpt>
      <trkpt lat="43.35133" lon="2.74021">
        <ele>199.13</ele>
        <time>2014-11-10T12:54:59Z</time>
      </trkpt>
      <trkpt lat="43.35133" lon="2.74027">
        <ele>199.61</ele>
        <time>2014-11-10T12:55:03Z</time>
      </trkpt>
      <trkpt lat="43.35134" lon="2.74034">
        <ele>198.65</ele>
        <time>2014-11-10T12:55:07Z</time>
      </trkpt>
      <trkpt lat="43.3515" lon="2.74052">
        <ele>200.57</ele>
        <time>2014-11-10T12:55:25Z</time>
      </trkpt>
      <trkpt lat="43.35155" lon="2.74054">
        <ele>202.01</ele>
        <time>2014-11-10T12:55:29Z</time>
      </trkpt>
      <trkpt lat="43.35181" lon="2.74053">
        <ele>205.38</ele>
        <time>2014-11-10T12:55:51Z</time>
      </trkpt>
      <trkpt lat="43.35191" lon="2.74042">
        <ele>205.86</ele>
        <time>2014-11-10T12:56:01Z</time>
      </trkpt>
      <trkpt lat="43.35194" lon="2.74039">
        <ele>205.38</ele>
        <time>2014-11-10T12:56:03Z</time>
      </trkpt>
      <trkpt lat="43.35203" lon="2.74027">
        <ele>208.74</ele>
        <time>2014-11-10T12:56:12Z</time>
      </trkpt>
      <trkpt lat="43.35204" lon="2.74026">
        <ele>205.38</ele>
        <time>2014-11-10T12:56:13Z</time>
      </trkpt>
      <trkpt lat="43.35205" lon="2.74023">
        <ele>209.7</ele>
        <time>2014-11-10T12:56:15Z</time>
      </trkpt>
      <trkpt lat="43.35206" lon="2.74022">
        <ele>206.34</ele>
        <time>2014-11-10T12:56:16Z</time>
      </trkpt>
      <trkpt lat="43.35211" lon="2.74013">
        <ele>209.22</ele>
        <time>2014-11-10T12:56:23Z</time>
      </trkpt>
      <trkpt lat="43.35223" lon="2.73981">
        <ele>210.67</ele>
        <time>2014-11-10T12:56:42Z</time>
      </trkpt>
      <trkpt lat="43.3523" lon="2.73965">
        <ele>214.03</ele>
        <time>2014-11-10T12:56:51Z</time>
      </trkpt>
      <trkpt lat="43.35249" lon="2.73928">
        <ele>214.99</ele>
        <time>2014-11-10T12:57:13Z</time>
      </trkpt>
      <trkpt lat="43.35268" lon="2.73907">
        <ele>218.84</ele>
        <time>2014-11-10T12:57:31Z</time>
      </trkpt>
      <trkpt lat="43.35276" lon="2.73903">
        <ele>219.8</ele>
        <time>2014-11-10T12:57:38Z</time>
      </trkpt>
      <trkpt lat="43.35298" lon="2.73892">
        <ele>220.76</ele>
        <time>2014-11-10T12:57:55Z</time>
      </trkpt>
      <trkpt lat="43.35305" lon="2.73888">
        <ele>221.72</ele>
        <time>2014-11-10T12:58:08Z</time>
      </trkpt>
      <trkpt lat="43.35316" lon="2.73889">
        <ele>221.72</ele>
        <time>2014-11-10T12:58:20Z</time>
      </trkpt>
      <trkpt lat="43.35319" lon="2.73886">
        <ele>222.68</ele>
        <time>2014-11-10T12:58:23Z</time>
      </trkpt>
      <trkpt lat="43.35333" lon="2.73884">
        <ele>224.12</ele>
        <time>2014-11-10T12:58:36Z</time>
      </trkpt>
      <trkpt lat="43.35342" lon="2.73885">
        <ele>226.05</ele>
        <time>2014-11-10T12:58:45Z</time>
      </trkpt>
      <trkpt lat="43.35345" lon="2.73885">
        <ele>220.76</ele>
        <time>2014-11-10T12:58:54Z</time>
      </trkpt>
      <trkpt lat="43.35346" lon="2.73886">
        <ele>226.05</ele>
        <time>2014-11-10T12:58:55Z</time>
      </trkpt>
      <trkpt lat="43.35358" lon="2.73894">
        <ele>227.01</ele>
        <time>2014-11-10T12:59:08Z</time>
      </trkpt>
      <trkpt lat="43.35369" lon="2.73906">
        <ele>227.97</ele>
        <time>2014-11-10T12:59:23Z</time>
      </trkpt>
      <trkpt lat="43.35379" lon="2.73923">
        <ele>229.41</ele>
        <time>2014-11-10T12:59:39Z</time>
      </trkpt>
      <trkpt lat="43.3539" lon="2.73943">
        <ele>230.85</ele>
        <time>2014-11-10T12:59:56Z</time>
      </trkpt>
      <trkpt lat="43.35391" lon="2.73945">
        <ele>233.26</ele>
        <time>2014-11-10T13:00:03Z</time>
      </trkpt>
      <trkpt lat="43.35393" lon="2.73948">
        <ele>231.33</ele>
        <time>2014-11-10T13:00:06Z</time>
      </trkpt>
      <trkpt lat="43.35397" lon="2.73957">
        <ele>232.78</ele>
        <time>2014-11-10T13:00:19Z</time>
      </trkpt>
      <trkpt lat="43.35402" lon="2.73963">
        <ele>232.3</ele>
        <time>2014-11-10T13:00:25Z</time>
      </trkpt>
      <trkpt lat="43.35408" lon="2.7396">
        <ele>233.26</ele>
        <time>2014-11-10T13:00:31Z</time>
      </trkpt>
      <trkpt lat="43.35419" lon="2.73955">
        <ele>234.7</ele>
        <time>2014-11-10T13:00:44Z</time>
      </trkpt>
      <trkpt lat="43.35433" lon="2.73946">
        <ele>237.58</ele>
        <time>2014-11-10T13:00:59Z</time>
      </trkpt>
      <trkpt lat="43.35439" lon="2.73945">
        <ele>238.54</ele>
        <time>2014-11-10T13:01:04Z</time>
      </trkpt>
      <trkpt lat="43.35442" lon="2.73944">
        <ele>238.54</ele>
        <time>2014-11-10T13:01:07Z</time>
      </trkpt>
      <trkpt lat="43.35449" lon="2.73949">
        <ele>238.06</ele>
        <time>2014-11-10T13:01:13Z</time>
      </trkpt>
      <trkpt lat="43.35464" lon="2.73957">
        <ele>239.99</ele>
        <time>2014-11-10T13:01:28Z</time>
      </trkpt>
      <trkpt lat="43.35466" lon="2.73959">
        <ele>239.99</ele>
        <time>2014-11-10T13:01:30Z</time>
      </trkpt>
      <trkpt lat="43.35472" lon="2.73961">
        <ele>240.47</ele>
        <time>2014-11-10T13:01:37Z</time>
      </trkpt>
      <trkpt lat="43.35475" lon="2.73965">
        <ele>240.47</ele>
        <time>2014-11-10T13:01:41Z</time>
      </trkpt>
      <trkpt lat="43.35483" lon="2.73971">
        <ele>240.95</ele>
        <time>2014-11-10T13:01:49Z</time>
      </trkpt>
      <trkpt lat="43.35488" lon="2.73972">
        <ele>240.95</ele>
        <time>2014-11-10T13:01:53Z</time>
      </trkpt>
      <trkpt lat="43.35494" lon="2.73974">
        <ele>241.43</ele>
        <time>2014-11-10T13:01:59Z</time>
      </trkpt>
      <trkpt lat="43.35515" lon="2.73972">
        <ele>243.83</ele>
        <time>2014-11-10T13:02:17Z</time>
      </trkpt>
      <trkpt lat="43.35528" lon="2.73963">
        <ele>245.75</ele>
        <time>2014-11-10T13:02:32Z</time>
      </trkpt>
      <trkpt lat="43.35529" lon="2.73962">
        <ele>246.23</ele>
        <time>2014-11-10T13:02:33Z</time>
      </trkpt>
      <trkpt lat="43.3553" lon="2.73957">
        <ele>246.72</ele>
        <time>2014-11-10T13:02:36Z</time>
      </trkpt>
      <trkpt lat="43.35531" lon="2.7395">
        <ele>247.2</ele>
        <time>2014-11-10T13:02:47Z</time>
      </trkpt>
      <trkpt lat="43.35532" lon="2.73937">
        <ele>249.12</ele>
        <time>2014-11-10T13:02:55Z</time>
      </trkpt>
      <trkpt lat="43.35532" lon="2.73934">
        <ele>247.68</ele>
        <time>2014-11-10T13:02:57Z</time>
      </trkpt>
      <trkpt lat="43.35534" lon="2.73929">
        <ele>247.68</ele>
        <time>2014-11-10T13:03:01Z</time>
      </trkpt>
      <trkpt lat="43.35536" lon="2.73907">
        <ele>250.08</ele>
        <time>2014-11-10T13:03:16Z</time>
      </trkpt>
      <trkpt lat="43.35535" lon="2.73894">
        <ele>249.6</ele>
        <time>2014-11-10T13:03:24Z</time>
      </trkpt>
      <trkpt lat="43.35536" lon="2.73887">
        <ele>251.52</ele>
        <time>2014-11-10T13:03:28Z</time>
      </trkpt>
      <trkpt lat="43.35539" lon="2.73862">
        <ele>254.89</ele>
        <time>2014-11-10T13:03:44Z</time>
      </trkpt>
      <trkpt lat="43.3554" lon="2.73856">
        <ele>255.37</ele>
        <time>2014-11-10T13:03:49Z</time>
      </trkpt>
      <trkpt lat="43.35539" lon="2.73828">
        <ele>255.85</ele>
        <time>2014-11-10T13:04:04Z</time>
      </trkpt>
      <trkpt lat="43.35538" lon="2.73799">
        <ele>257.29</ele>
        <time>2014-11-10T13:04:21Z</time>
      </trkpt>
      <trkpt lat="43.35541" lon="2.73775">
        <ele>256.81</ele>
        <time>2014-11-10T13:04:36Z</time>
      </trkpt>
      <trkpt lat="43.35544" lon="2.7375">
        <ele>259.21</ele>
        <time>2014-11-10T13:04:50Z</time>
      </trkpt>
      <trkpt lat="43.35551" lon="2.73726">
        <ele>260.17</ele>
        <time>2014-11-10T13:05:05Z</time>
      </trkpt>
      <trkpt lat="43.35553" lon="2.73724">
        <ele>260.17</ele>
        <time>2014-11-10T13:05:08Z</time>
      </trkpt>
      <trkpt lat="43.35555" lon="2.73722">
        <ele>259.21</ele>
        <time>2014-11-10T13:05:11Z</time>
      </trkpt>
      <trkpt lat="43.35567" lon="2.73701">
        <ele>257.77</ele>
        <time>2014-11-10T13:05:28Z</time>
      </trkpt>
      <trkpt lat="43.35567" lon="2.737">
        <ele>259.21</ele>
        <time>2014-11-10T13:05:29Z</time>
      </trkpt>
      <trkpt lat="43.35571" lon="2.73697">
        <ele>259.69</ele>
        <time>2014-11-10T13:05:33Z</time>
      </trkpt>
      <trkpt lat="43.35573" lon="2.73694">
        <ele>263.06</ele>
        <time>2014-11-10T13:05:36Z</time>
      </trkpt>
      <trkpt lat="43.35575" lon="2.73689">
        <ele>262.1</ele>
        <time>2014-11-10T13:05:40Z</time>
      </trkpt>
      <trkpt lat="43.35576" lon="2.73686">
        <ele>260.17</ele>
        <time>2014-11-10T13:05:42Z</time>
      </trkpt>
      <trkpt lat="43.35576" lon="2.73681">
        <ele>265.46</ele>
        <time>2014-11-10T13:05:45Z</time>
      </trkpt>
      <trkpt lat="43.35577" lon="2.73679">
        <ele>260.17</ele>
        <time>2014-11-10T13:05:46Z</time>
      </trkpt>
      <trkpt lat="43.35577" lon="2.73672">
        <ele>261.62</ele>
        <time>2014-11-10T13:05:50Z</time>
      </trkpt>
      <trkpt lat="43.35578" lon="2.73664">
        <ele>267.38</ele>
        <time>2014-11-10T13:05:55Z</time>
      </trkpt>
      <trkpt lat="43.35578" lon="2.73662">
        <ele>264.02</ele>
        <time>2014-11-10T13:05:56Z</time>
      </trkpt>
      <trkpt lat="43.35578" lon="2.7366">
        <ele>260.17</ele>
        <time>2014-11-10T13:05:57Z</time>
      </trkpt>
      <trkpt lat="43.35579" lon="2.73659">
        <ele>256.81</ele>
        <time>2014-11-10T13:05:58Z</time>
      </trkpt>
      <trkpt lat="43.35579" lon="2.73657">
        <ele>258.73</ele>
        <time>2014-11-10T13:05:59Z</time>
      </trkpt>
      <trkpt lat="43.35578" lon="2.73656">
        <ele>266.42</ele>
        <time>2014-11-10T13:06:00Z</time>
      </trkpt>
      <trkpt lat="43.35579" lon="2.73654">
        <ele>264.5</ele>
        <time>2014-11-10T13:06:01Z</time>
      </trkpt>
      <trkpt lat="43.35584" lon="2.73625">
        <ele>265.46</ele>
        <time>2014-11-10T13:06:21Z</time>
      </trkpt>
      <trkpt lat="43.35583" lon="2.73609">
        <ele>265.46</ele>
        <time>2014-11-10T13:06:40Z</time>
      </trkpt>
      <trkpt lat="43.35579" lon="2.736">
        <ele>265.46</ele>
        <time>2014-11-10T13:06:46Z</time>
      </trkpt>
      <trkpt lat="43.35579" lon="2.73596">
        <ele>265.94</ele>
        <time>2014-11-10T13:06:49Z</time>
      </trkpt>
      <trkpt lat="43.35578" lon="2.73591">
        <ele>264.5</ele>
        <time>2014-11-10T13:06:52Z</time>
      </trkpt>
      <trkpt lat="43.35579" lon="2.73571">
        <ele>266.9</ele>
        <time>2014-11-10T13:07:03Z</time>
      </trkpt>
      <trkpt lat="43.35581" lon="2.73563">
        <ele>266.42</ele>
        <time>2014-11-10T13:07:08Z</time>
      </trkpt>
      <trkpt lat="43.35582" lon="2.73542">
        <ele>268.83</ele>
        <time>2014-11-10T13:07:24Z</time>
      </trkpt>
      <trkpt lat="43.35582" lon="2.73531">
        <ele>268.35</ele>
        <time>2014-11-10T13:07:31Z</time>
      </trkpt>
      <trkpt lat="43.35582" lon="2.73511">
        <ele>268.35</ele>
        <time>2014-11-10T13:07:44Z</time>
      </trkpt>
      <trkpt lat="43.35582" lon="2.73508">
        <ele>266.42</ele>
        <time>2014-11-10T13:07:46Z</time>
      </trkpt>
      <trkpt lat="43.35587" lon="2.73481">
        <ele>270.27</ele>
        <time>2014-11-10T13:08:07Z</time>
      </trkpt>
      <trkpt lat="43.35595" lon="2.73465">
        <ele>271.23</ele>
        <time>2014-11-10T13:08:22Z</time>
      </trkpt>
      <trkpt lat="43.35597" lon="2.73455">
        <ele>270.27</ele>
        <time>2014-11-10T13:08:28Z</time>
      </trkpt>
      <trkpt lat="43.35604" lon="2.7344">
        <ele>270.75</ele>
        <time>2014-11-10T13:08:40Z</time>
      </trkpt>
      <trkpt lat="43.3561" lon="2.73427">
        <ele>268.83</ele>
        <time>2014-11-10T13:08:50Z</time>
      </trkpt>
      <trkpt lat="43.35611" lon="2.73426">
        <ele>272.67</ele>
        <time>2014-11-10T13:08:51Z</time>
      </trkpt>
      <trkpt lat="43.35611" lon="2.73425">
        <ele>271.71</ele>
        <time>2014-11-10T13:08:52Z</time>
      </trkpt>
      <trkpt lat="43.35616" lon="2.73411">
        <ele>270.75</ele>
        <time>2014-11-10T13:09:10Z</time>
      </trkpt>
      <trkpt lat="43.35617" lon="2.7341">
        <ele>271.71</ele>
        <time>2014-11-10T13:09:31Z</time>
      </trkpt>
      <trkpt lat="43.35617" lon="2.73409">
        <ele>274.11</ele>
        <time>2014-11-10T13:09:37Z</time>
      </trkpt>
      <trkpt lat="43.35618" lon="2.73409">
        <ele>270.75</ele>
        <time>2014-11-10T13:09:38Z</time>
      </trkpt>
      <trkpt lat="43.35626" lon="2.73403">
        <ele>271.23</ele>
        <time>2014-11-10T13:09:54Z</time>
      </trkpt>
      <trkpt lat="43.35627" lon="2.73401">
        <ele>271.23</ele>
        <time>2014-11-10T13:09:55Z</time>
      </trkpt>
      <trkpt lat="43.35627" lon="2.73396">
        <ele>273.15</ele>
        <time>2014-11-10T13:09:57Z</time>
      </trkpt>
      <trkpt lat="43.35631" lon="2.73382">
        <ele>272.19</ele>
        <time>2014-11-10T13:10:05Z</time>
      </trkpt>
      <trkpt lat="43.35634" lon="2.73377">
        <ele>273.63</ele>
        <time>2014-11-10T13:10:08Z</time>
      </trkpt>
      <trkpt lat="43.35645" lon="2.73335">
        <ele>272.19</ele>
        <time>2014-11-10T13:10:25Z</time>
      </trkpt>
      <trkpt lat="43.35643" lon="2.7333">
        <ele>272.19</ele>
        <time>2014-11-10T13:10:27Z</time>
      </trkpt>
      <trkpt lat="43.35646" lon="2.73294">
        <ele>272.19</ele>
        <time>2014-11-10T13:10:46Z</time>
      </trkpt>
      <trkpt lat="43.35655" lon="2.73277">
        <ele>272.19</ele>
        <time>2014-11-10T13:11:06Z</time>
      </trkpt>
      <trkpt lat="43.35661" lon="2.73269">
        <ele>273.15</ele>
        <time>2014-11-10T13:11:21Z</time>
      </trkpt>
      <trkpt lat="43.35672" lon="2.73249">
        <ele>273.15</ele>
        <time>2014-11-10T13:11:39Z</time>
      </trkpt>
      <trkpt lat="43.35674" lon="2.73245">
        <ele>273.15</ele>
        <time>2014-11-10T13:11:42Z</time>
      </trkpt>
      <trkpt lat="43.35681" lon="2.73233">
        <ele>273.63</ele>
        <time>2014-11-10T13:11:51Z</time>
      </trkpt>
      <trkpt lat="43.35689" lon="2.73218">
        <ele>274.59</ele>
        <time>2014-11-10T13:12:05Z</time>
      </trkpt>
      <trkpt lat="43.35691" lon="2.73208">
        <ele>274.11</ele>
        <time>2014-11-10T13:12:12Z</time>
      </trkpt>
      <trkpt lat="43.35693" lon="2.73203">
        <ele>273.63</ele>
        <time>2014-11-10T13:12:15Z</time>
      </trkpt>
      <trkpt lat="43.35698" lon="2.73176">
        <ele>272.19</ele>
        <time>2014-11-10T13:12:32Z</time>
      </trkpt>
      <trkpt lat="43.35701" lon="2.73152">
        <ele>271.71</ele>
        <time>2014-11-10T13:12:48Z</time>
      </trkpt>
      <trkpt lat="43.35694" lon="2.73144">
        <ele>272.19</ele>
        <time>2014-11-10T13:12:59Z</time>
      </trkpt>
      <trkpt lat="43.35686" lon="2.73146">
        <ele>271.71</ele>
        <time>2014-11-10T13:13:09Z</time>
      </trkpt>
      <trkpt lat="43.35673" lon="2.73154">
        <ele>271.71</ele>
        <time>2014-11-10T13:13:23Z</time>
      </trkpt>
      <trkpt lat="43.35658" lon="2.73159">
        <ele>271.23</ele>
        <time>2014-11-10T13:13:38Z</time>
      </trkpt>
      <trkpt lat="43.35642" lon="2.73146">
        <ele>270.75</ele>
        <time>2014-11-10T13:13:57Z</time>
      </trkpt>
      <trkpt lat="43.35637" lon="2.73124">
        <ele>273.15</ele>
        <time>2014-11-10T13:14:15Z</time>
      </trkpt>
      <trkpt lat="43.3564" lon="2.73109">
        <ele>274.59</ele>
        <time>2014-11-10T13:14:29Z</time>
      </trkpt>
      <trkpt lat="43.35648" lon="2.73097">
        <ele>276.52</ele>
        <time>2014-11-10T13:14:43Z</time>
      </trkpt>
      <trkpt lat="43.3566" lon="2.73082">
        <ele>277.96</ele>
        <time>2014-11-10T13:15:00Z</time>
      </trkpt>
      <trkpt lat="43.35671" lon="2.73068">
        <ele>279.88</ele>
        <time>2014-11-10T13:15:16Z</time>
      </trkpt>
      <trkpt lat="43.35683" lon="2.73055">
        <ele>282.28</ele>
        <time>2014-11-10T13:15:32Z</time>
      </trkpt>
      <trkpt lat="43.35694" lon="2.73038">
        <ele>283.25</ele>
        <time>2014-11-10T13:15:47Z</time>
      </trkpt>
      <trkpt lat="43.35695" lon="2.73036">
        <ele>283.73</ele>
        <time>2014-11-10T13:15:49Z</time>
      </trkpt>
      <trkpt lat="43.35704" lon="2.73019">
        <ele>285.17</ele>
        <time>2014-11-10T13:16:04Z</time>
      </trkpt>
      <trkpt lat="43.35706" lon="2.73016">
        <ele>285.17</ele>
        <time>2014-11-10T13:16:07Z</time>
      </trkpt>
      <trkpt lat="43.3572" lon="2.72999">
        <ele>287.09</ele>
        <time>2014-11-10T13:16:28Z</time>
      </trkpt>
      <trkpt lat="43.3573" lon="2.72987">
        <ele>288.53</ele>
        <time>2014-11-10T13:16:42Z</time>
      </trkpt>
      <trkpt lat="43.3573" lon="2.72986">
        <ele>288.53</ele>
        <time>2014-11-10T13:16:43Z</time>
      </trkpt>
      <trkpt lat="43.35744" lon="2.72971">
        <ele>290.46</ele>
        <time>2014-11-10T13:17:00Z</time>
      </trkpt>
      <trkpt lat="43.35748" lon="2.72966">
        <ele>290.94</ele>
        <time>2014-11-10T13:17:07Z</time>
      </trkpt>
      <trkpt lat="43.3576" lon="2.72952">
        <ele>292.38</ele>
        <time>2014-11-10T13:17:24Z</time>
      </trkpt>
      <trkpt lat="43.3577" lon="2.72942">
        <ele>292.86</ele>
        <time>2014-11-10T13:17:38Z</time>
      </trkpt>
      <trkpt lat="43.35781" lon="2.72931">
        <ele>294.3</ele>
        <time>2014-11-10T13:17:55Z</time>
      </trkpt>
      <trkpt lat="43.3579" lon="2.7292">
        <ele>295.74</ele>
        <time>2014-11-10T13:18:09Z</time>
      </trkpt>
      <trkpt lat="43.35799" lon="2.72902">
        <ele>296.7</ele>
        <time>2014-11-10T13:18:25Z</time>
      </trkpt>
      <trkpt lat="43.35805" lon="2.72889">
        <ele>297.67</ele>
        <time>2014-11-10T13:18:31Z</time>
      </trkpt>
      <trkpt lat="43.35808" lon="2.72879">
        <ele>296.7</ele>
        <time>2014-11-10T13:18:35Z</time>
      </trkpt>
      <trkpt lat="43.3582" lon="2.72857">
        <ele>300.55</ele>
        <time>2014-11-10T13:18:48Z</time>
      </trkpt>
      <trkpt lat="43.35822" lon="2.72849">
        <ele>300.55</ele>
        <time>2014-11-10T13:19:00Z</time>
      </trkpt>
      <trkpt lat="43.35824" lon="2.72847">
        <ele>300.55</ele>
        <time>2014-11-10T13:19:02Z</time>
      </trkpt>
      <trkpt lat="43.3583" lon="2.72836">
        <ele>301.51</ele>
        <time>2014-11-10T13:19:12Z</time>
      </trkpt>
      <trkpt lat="43.35836" lon="2.72811">
        <ele>302.47</ele>
        <time>2014-11-10T13:19:30Z</time>
      </trkpt>
      <trkpt lat="43.35836" lon="2.7281">
        <ele>301.99</ele>
        <time>2014-11-10T13:19:31Z</time>
      </trkpt>
      <trkpt lat="43.35836" lon="2.72806">
        <ele>302.47</ele>
        <time>2014-11-10T13:19:34Z</time>
      </trkpt>
      <trkpt lat="43.3583" lon="2.72778">
        <ele>302.47</ele>
        <time>2014-11-10T13:19:55Z</time>
      </trkpt>
      <trkpt lat="43.35825" lon="2.7275">
        <ele>303.91</ele>
        <time>2014-11-10T13:20:13Z</time>
      </trkpt>
      <trkpt lat="43.35818" lon="2.72725">
        <ele>303.43</ele>
        <time>2014-11-10T13:20:31Z</time>
      </trkpt>
      <trkpt lat="43.35814" lon="2.72701">
        <ele>303.43</ele>
        <time>2014-11-10T13:20:48Z</time>
      </trkpt>
      <trkpt lat="43.3581" lon="2.72677">
        <ele>303.43</ele>
        <time>2014-11-10T13:21:04Z</time>
      </trkpt>
      <trkpt lat="43.35807" lon="2.72654">
        <ele>303.91</ele>
        <time>2014-11-10T13:21:19Z</time>
      </trkpt>
      <trkpt lat="43.35807" lon="2.72648">
        <ele>304.39</ele>
        <time>2014-11-10T13:21:22Z</time>
      </trkpt>
      <trkpt lat="43.3581" lon="2.7264">
        <ele>304.39</ele>
        <time>2014-11-10T13:21:28Z</time>
      </trkpt>
      <trkpt lat="43.35827" lon="2.72637">
        <ele>306.32</ele>
        <time>2014-11-10T13:21:46Z</time>
      </trkpt>
      <trkpt lat="43.35847" lon="2.72637">
        <ele>308.72</ele>
        <time>2014-11-10T13:22:01Z</time>
      </trkpt>
      <trkpt lat="43.35854" lon="2.72636">
        <ele>309.68</ele>
        <time>2014-11-10T13:22:14Z</time>
      </trkpt>
      <trkpt lat="43.35853" lon="2.72636">
        <ele>309.2</ele>
        <time>2014-11-10T13:22:35Z</time>
      </trkpt>
      <trkpt lat="43.35854" lon="2.72636">
        <ele>309.68</ele>
        <time>2014-11-10T13:22:39Z</time>
      </trkpt>
      <trkpt lat="43.35859" lon="2.72632">
        <ele>310.16</ele>
        <time>2014-11-10T13:22:46Z</time>
      </trkpt>
      <trkpt lat="43.35862" lon="2.72628">
        <ele>310.64</ele>
        <time>2014-11-10T13:22:50Z</time>
      </trkpt>
      <trkpt lat="43.35866" lon="2.72623">
        <ele>311.12</ele>
        <time>2014-11-10T13:22:56Z</time>
      </trkpt>
      <trkpt lat="43.35876" lon="2.7261">
        <ele>311.6</ele>
        <time>2014-11-10T13:23:11Z</time>
      </trkpt>
      <trkpt lat="43.35889" lon="2.72601">
        <ele>314.01</ele>
        <time>2014-11-10T13:23:28Z</time>
      </trkpt>
      <trkpt lat="43.35905" lon="2.72597">
        <ele>315.45</ele>
        <time>2014-11-10T13:23:45Z</time>
      </trkpt>
      <trkpt lat="43.35905" lon="2.72597">
        <ele>315.45</ele>
        <time>2014-11-10T13:23:46Z</time>
      </trkpt>
      <trkpt lat="43.35908" lon="2.72597">
        <ele>315.45</ele>
        <time>2014-11-10T13:23:49Z</time>
      </trkpt>
      <trkpt lat="43.35924" lon="2.72598">
        <ele>317.85</ele>
        <time>2014-11-10T13:24:07Z</time>
      </trkpt>
      <trkpt lat="43.3594" lon="2.72596">
        <ele>319.78</ele>
        <time>2014-11-10T13:24:25Z</time>
      </trkpt>
      <trkpt lat="43.35956" lon="2.72592">
        <ele>320.74</ele>
        <time>2014-11-10T13:24:42Z</time>
      </trkpt>
      <trkpt lat="43.35971" lon="2.72582">
        <ele>323.14</ele>
        <time>2014-11-10T13:25:00Z</time>
      </trkpt>
      <trkpt lat="43.3598" lon="2.72566">
        <ele>324.1</ele>
        <time>2014-11-10T13:25:14Z</time>
      </trkpt>
      <trkpt lat="43.35984" lon="2.72557">
        <ele>324.58</ele>
        <time>2014-11-10T13:25:25Z</time>
      </trkpt>
      <trkpt lat="43.35986" lon="2.72553">
        <ele>325.06</ele>
        <time>2014-11-10T13:25:28Z</time>
      </trkpt>
      <trkpt lat="43.35998" lon="2.72536">
        <ele>326.99</ele>
        <time>2014-11-10T13:25:47Z</time>
      </trkpt>
      <trkpt lat="43.3601" lon="2.72525">
        <ele>328.43</ele>
        <time>2014-11-10T13:26:04Z</time>
      </trkpt>
      <trkpt lat="43.36022" lon="2.72521">
        <ele>329.39</ele>
        <time>2014-11-10T13:26:20Z</time>
      </trkpt>
      <trkpt lat="43.3603" lon="2.72519">
        <ele>330.35</ele>
        <time>2014-11-10T13:26:40Z</time>
      </trkpt>
      <trkpt lat="43.3603" lon="2.72518">
        <ele>330.35</ele>
        <time>2014-11-10T13:26:59Z</time>
      </trkpt>
      <trkpt lat="43.36031" lon="2.72519">
        <ele>330.35</ele>
        <time>2014-11-10T13:27:12Z</time>
      </trkpt>
      <trkpt lat="43.36031" lon="2.72519">
        <ele>330.83</ele>
        <time>2014-11-10T13:27:32Z</time>
      </trkpt>
      <trkpt lat="43.36031" lon="2.72518">
        <ele>330.35</ele>
        <time>2014-11-10T13:27:56Z</time>
      </trkpt>
      <trkpt lat="43.36031" lon="2.72517">
        <ele>330.83</ele>
        <time>2014-11-10T13:28:17Z</time>
      </trkpt>
      <trkpt lat="43.36031" lon="2.72516">
        <ele>330.35</ele>
        <time>2014-11-10T13:28:43Z</time>
      </trkpt>
      <trkpt lat="43.36031" lon="2.72516">
        <ele>330.35</ele>
        <time>2014-11-10T13:29:09Z</time>
      </trkpt>
      <trkpt lat="43.36032" lon="2.72516">
        <ele>329.87</ele>
        <time>2014-11-10T13:29:33Z</time>
      </trkpt>
      <trkpt lat="43.36032" lon="2.72516">
        <ele>330.35</ele>
        <time>2014-11-10T13:30:02Z</time>
      </trkpt>
      <trkpt lat="43.36032" lon="2.72515">
        <ele>330.35</ele>
        <time>2014-11-10T13:30:27Z</time>
      </trkpt>
      <trkpt lat="43.36032" lon="2.72514">
        <ele>330.83</ele>
        <time>2014-11-10T13:30:54Z</time>
      </trkpt>
      <trkpt lat="43.36032" lon="2.72514">
        <ele>330.83</ele>
        <time>2014-11-10T13:31:17Z</time>
      </trkpt>
      <trkpt lat="43.36035" lon="2.7251">
        <ele>331.31</ele>
        <time>2014-11-10T13:31:38Z</time>
      </trkpt>
      <trkpt lat="43.36054" lon="2.72487">
        <ele>332.27</ele>
        <time>2014-11-10T13:31:59Z</time>
      </trkpt>
      <trkpt lat="43.36073" lon="2.72481">
        <ele>334.68</ele>
        <time>2014-11-10T13:32:20Z</time>
      </trkpt>
      <trkpt lat="43.3609" lon="2.72473">
        <ele>336.12</ele>
        <time>2014-11-10T13:32:39Z</time>
      </trkpt>
      <trkpt lat="43.36103" lon="2.72452">
        <ele>338.52</ele>
        <time>2014-11-10T13:33:03Z</time>
      </trkpt>
      <trkpt lat="43.36122" lon="2.72455">
        <ele>339</ele>
        <time>2014-11-10T13:33:24Z</time>
      </trkpt>
      <trkpt lat="43.36131" lon="2.72437">
        <ele>341.41</ele>
        <time>2014-11-10T13:33:44Z</time>
      </trkpt>
      <trkpt lat="43.36133" lon="2.72432">
        <ele>340.92</ele>
        <time>2014-11-10T13:33:48Z</time>
      </trkpt>
      <trkpt lat="43.36132" lon="2.7241">
        <ele>341.41</ele>
        <time>2014-11-10T13:33:59Z</time>
      </trkpt>
      <trkpt lat="43.36128" lon="2.72373">
        <ele>340.92</ele>
        <time>2014-11-10T13:34:23Z</time>
      </trkpt>
      <trkpt lat="43.36136" lon="2.72349">
        <ele>342.37</ele>
        <time>2014-11-10T13:34:44Z</time>
      </trkpt>
      <trkpt lat="43.36137" lon="2.72344">
        <ele>342.85</ele>
        <time>2014-11-10T13:34:47Z</time>
      </trkpt>
      <trkpt lat="43.36142" lon="2.72319">
        <ele>342.85</ele>
        <time>2014-11-10T13:35:06Z</time>
      </trkpt>
      <trkpt lat="43.36145" lon="2.7229">
        <ele>344.29</ele>
        <time>2014-11-10T13:35:31Z</time>
      </trkpt>
      <trkpt lat="43.36146" lon="2.72256">
        <ele>344.77</ele>
        <time>2014-11-10T13:35:53Z</time>
      </trkpt>
      <trkpt lat="43.36156" lon="2.72221">
        <ele>346.21</ele>
        <time>2014-11-10T13:36:18Z</time>
      </trkpt>
      <trkpt lat="43.36166" lon="2.72194">
        <ele>348.13</ele>
        <time>2014-11-10T13:36:41Z</time>
      </trkpt>
      <trkpt lat="43.36176" lon="2.72174">
        <ele>349.1</ele>
        <time>2014-11-10T13:37:03Z</time>
      </trkpt>
      <trkpt lat="43.36187" lon="2.72156">
        <ele>349.1</ele>
        <time>2014-11-10T13:37:25Z</time>
      </trkpt>
      <trkpt lat="43.36193" lon="2.72138">
        <ele>351.02</ele>
        <time>2014-11-10T13:37:43Z</time>
      </trkpt>
      <trkpt lat="43.36198" lon="2.72099">
        <ele>352.94</ele>
        <time>2014-11-10T13:38:06Z</time>
      </trkpt>
      <trkpt lat="43.36211" lon="2.72078">
        <ele>353.9</ele>
        <time>2014-11-10T13:38:29Z</time>
      </trkpt>
      <trkpt lat="43.36212" lon="2.72077">
        <ele>353.9</ele>
        <time>2014-11-10T13:38:30Z</time>
      </trkpt>
      <trkpt lat="43.36223" lon="2.72058">
        <ele>355.83</ele>
        <time>2014-11-10T13:38:52Z</time>
      </trkpt>
      <trkpt lat="43.36224" lon="2.72052">
        <ele>355.83</ele>
        <time>2014-11-10T13:38:57Z</time>
      </trkpt>
      <trkpt lat="43.36231" lon="2.72021">
        <ele>357.27</ele>
        <time>2014-11-10T13:39:20Z</time>
      </trkpt>
      <trkpt lat="43.36239" lon="2.71999">
        <ele>358.71</ele>
        <time>2014-11-10T13:39:42Z</time>
      </trkpt>
      <trkpt lat="43.3625" lon="2.71972">
        <ele>360.15</ele>
        <time>2014-11-10T13:40:05Z</time>
      </trkpt>
      <trkpt lat="43.36263" lon="2.71949">
        <ele>361.59</ele>
        <time>2014-11-10T13:40:26Z</time>
      </trkpt>
      <trkpt lat="43.36273" lon="2.71942">
        <ele>363.04</ele>
        <time>2014-11-10T13:40:46Z</time>
      </trkpt>
      <trkpt lat="43.36293" lon="2.71935">
        <ele>364.48</ele>
        <time>2014-11-10T13:41:08Z</time>
      </trkpt>
      <trkpt lat="43.36311" lon="2.71915">
        <ele>364.96</ele>
        <time>2014-11-10T13:41:28Z</time>
      </trkpt>
      <trkpt lat="43.36319" lon="2.71897">
        <ele>365.44</ele>
        <time>2014-11-10T13:41:44Z</time>
      </trkpt>
      <trkpt lat="43.36316" lon="2.71899">
        <ele>364.96</ele>
        <time>2014-11-10T13:41:57Z</time>
      </trkpt>
      <trkpt lat="43.36316" lon="2.71898">
        <ele>365.44</ele>
        <time>2014-11-10T13:42:16Z</time>
      </trkpt>
      <trkpt lat="43.36316" lon="2.71898">
        <ele>365.44</ele>
        <time>2014-11-10T13:42:40Z</time>
      </trkpt>
      <trkpt lat="43.36317" lon="2.71897">
        <ele>364.96</ele>
        <time>2014-11-10T13:43:06Z</time>
      </trkpt>
      <trkpt lat="43.36318" lon="2.71898">
        <ele>364.96</ele>
        <time>2014-11-10T13:43:30Z</time>
      </trkpt>
      <trkpt lat="43.36323" lon="2.7189">
        <ele>365.92</ele>
        <time>2014-11-10T13:43:51Z</time>
      </trkpt>
      <trkpt lat="43.36325" lon="2.71873">
        <ele>366.4</ele>
        <time>2014-11-10T13:44:07Z</time>
      </trkpt>
      <trkpt lat="43.36325" lon="2.71847">
        <ele>367.36</ele>
        <time>2014-11-10T13:44:29Z</time>
      </trkpt>
      <trkpt lat="43.36334" lon="2.71826">
        <ele>368.8</ele>
        <time>2014-11-10T13:44:50Z</time>
      </trkpt>
      <trkpt lat="43.36348" lon="2.71819">
        <ele>370.24</ele>
        <time>2014-11-10T13:45:08Z</time>
      </trkpt>
      <trkpt lat="43.36349" lon="2.71819">
        <ele>370.24</ele>
        <time>2014-11-10T13:45:10Z</time>
      </trkpt>
      <trkpt lat="43.3636" lon="2.71811">
        <ele>371.69</ele>
        <time>2014-11-10T13:45:32Z</time>
      </trkpt>
      <trkpt lat="43.3638" lon="2.718">
        <ele>373.61</ele>
        <time>2014-11-10T13:45:55Z</time>
      </trkpt>
      <trkpt lat="43.36401" lon="2.71791">
        <ele>375.05</ele>
        <time>2014-11-10T13:46:20Z</time>
      </trkpt>
      <trkpt lat="43.36418" lon="2.71785">
        <ele>376.97</ele>
        <time>2014-11-10T13:46:40Z</time>
      </trkpt>
      <trkpt lat="43.36433" lon="2.7178">
        <ele>378.9</ele>
        <time>2014-11-10T13:46:55Z</time>
      </trkpt>
      <trkpt lat="43.36459" lon="2.71768">
        <ele>379.86</ele>
        <time>2014-11-10T13:47:23Z</time>
      </trkpt>
      <trkpt lat="43.3648" lon="2.71752">
        <ele>381.3</ele>
        <time>2014-11-10T13:47:46Z</time>
      </trkpt>
      <trkpt lat="43.36501" lon="2.71739">
        <ele>382.26</ele>
        <time>2014-11-10T13:48:09Z</time>
      </trkpt>
      <trkpt lat="43.36516" lon="2.7173">
        <ele>384.66</ele>
        <time>2014-11-10T13:48:27Z</time>
      </trkpt>
      <trkpt lat="43.36527" lon="2.71723">
        <ele>385.63</ele>
        <time>2014-11-10T13:48:41Z</time>
      </trkpt>
      <trkpt lat="43.3654" lon="2.71708">
        <ele>386.11</ele>
        <time>2014-11-10T13:48:58Z</time>
      </trkpt>
      <trkpt lat="43.36552" lon="2.71692">
        <ele>386.59</ele>
        <time>2014-11-10T13:49:14Z</time>
      </trkpt>
      <trkpt lat="43.36565" lon="2.71682">
        <ele>388.03</ele>
        <time>2014-11-10T13:49:30Z</time>
      </trkpt>
      <trkpt lat="43.36579" lon="2.71672">
        <ele>390.91</ele>
        <time>2014-11-10T13:49:47Z</time>
      </trkpt>
      <trkpt lat="43.3658" lon="2.71671">
        <ele>390.43</ele>
        <time>2014-11-10T13:49:48Z</time>
      </trkpt>
      <trkpt lat="43.3659" lon="2.7166">
        <ele>391.39</ele>
        <time>2014-11-10T13:50:04Z</time>
      </trkpt>
      <trkpt lat="43.366" lon="2.71657">
        <ele>392.84</ele>
        <time>2014-11-10T13:50:17Z</time>
      </trkpt>
      <trkpt lat="43.36616" lon="2.71648">
        <ele>394.76</ele>
        <time>2014-11-10T13:50:35Z</time>
      </trkpt>
      <trkpt lat="43.36618" lon="2.71647">
        <ele>394.76</ele>
        <time>2014-11-10T13:50:37Z</time>
      </trkpt>
      <trkpt lat="43.36629" lon="2.71633">
        <ele>395.72</ele>
        <time>2014-11-10T13:50:53Z</time>
      </trkpt>
      <trkpt lat="43.36631" lon="2.71632">
        <ele>396.2</ele>
        <time>2014-11-10T13:50:55Z</time>
      </trkpt>
      <trkpt lat="43.36643" lon="2.71628">
        <ele>397.16</ele>
        <time>2014-11-10T13:51:13Z</time>
      </trkpt>
      <trkpt lat="43.36651" lon="2.71622">
        <ele>398.6</ele>
        <time>2014-11-10T13:51:30Z</time>
      </trkpt>
      <trkpt lat="43.36652" lon="2.7162">
        <ele>398.6</ele>
        <time>2014-11-10T13:51:53Z</time>
      </trkpt>
      <trkpt lat="43.36654" lon="2.7162">
        <ele>398.6</ele>
        <time>2014-11-10T13:52:15Z</time>
      </trkpt>
      <trkpt lat="43.3666" lon="2.71616">
        <ele>399.57</ele>
        <time>2014-11-10T13:52:37Z</time>
      </trkpt>
      <trkpt lat="43.36661" lon="2.71614">
        <ele>399.57</ele>
        <time>2014-11-10T13:52:38Z</time>
      </trkpt>
      <trkpt lat="43.36664" lon="2.71601">
        <ele>400.05</ele>
        <time>2014-11-10T13:52:51Z</time>
      </trkpt>
      <trkpt lat="43.36666" lon="2.71569">
        <ele>399.08</ele>
        <time>2014-11-10T13:53:11Z</time>
      </trkpt>
      <trkpt lat="43.36666" lon="2.71543">
        <ele>399.08</ele>
        <time>2014-11-10T13:53:36Z</time>
      </trkpt>
      <trkpt lat="43.36665" lon="2.71517">
        <ele>398.6</ele>
        <time>2014-11-10T13:53:58Z</time>
      </trkpt>
      <trkpt lat="43.36651" lon="2.71487">
        <ele>398.12</ele>
        <time>2014-11-10T13:54:22Z</time>
      </trkpt>
      <trkpt lat="43.36633" lon="2.71474">
        <ele>398.12</ele>
        <time>2014-11-10T13:54:38Z</time>
      </trkpt>
      <trkpt lat="43.36632" lon="2.71474">
        <ele>397.64</ele>
        <time>2014-11-10T13:54:39Z</time>
      </trkpt>
      <trkpt lat="43.36627" lon="2.71474">
        <ele>397.64</ele>
        <time>2014-11-10T13:54:43Z</time>
      </trkpt>
      <trkpt lat="43.36614" lon="2.71473">
        <ele>397.16</ele>
        <time>2014-11-10T13:54:56Z</time>
      </trkpt>
      <trkpt lat="43.36611" lon="2.71472">
        <ele>397.16</ele>
        <time>2014-11-10T13:54:59Z</time>
      </trkpt>
      <trkpt lat="43.36603" lon="2.71472">
        <ele>396.2</ele>
        <time>2014-11-10T13:55:17Z</time>
      </trkpt>
      <trkpt lat="43.36604" lon="2.71472">
        <ele>396.2</ele>
        <time>2014-11-10T13:55:36Z</time>
      </trkpt>
      <trkpt lat="43.36601" lon="2.71472">
        <ele>396.2</ele>
        <time>2014-11-10T13:55:39Z</time>
      </trkpt>
      <trkpt lat="43.36595" lon="2.71471">
        <ele>395.72</ele>
        <time>2014-11-10T13:55:44Z</time>
      </trkpt>
      <trkpt lat="43.36585" lon="2.71472">
        <ele>395.24</ele>
        <time>2014-11-10T13:55:53Z</time>
      </trkpt>
      <trkpt lat="43.36574" lon="2.71467">
        <ele>395.24</ele>
        <time>2014-11-10T13:56:08Z</time>
      </trkpt>
      <trkpt lat="43.36574" lon="2.71467">
        <ele>394.76</ele>
        <time>2014-11-10T13:56:10Z</time>
      </trkpt>
      <trkpt lat="43.36553" lon="2.7147">
        <ele>392.84</ele>
        <time>2014-11-10T13:56:28Z</time>
      </trkpt>
      <trkpt lat="43.36534" lon="2.71483">
        <ele>390.43</ele>
        <time>2014-11-10T13:56:46Z</time>
      </trkpt>
      <trkpt lat="43.36529" lon="2.71493">
        <ele>389.95</ele>
        <time>2014-11-10T13:56:53Z</time>
      </trkpt>
      <trkpt lat="43.36529" lon="2.71498">
        <ele>390.43</ele>
        <time>2014-11-10T13:57:07Z</time>
      </trkpt>
      <trkpt lat="43.36524" lon="2.71492">
        <ele>388.99</ele>
        <time>2014-11-10T13:57:22Z</time>
      </trkpt>
      <trkpt lat="43.36505" lon="2.71493">
        <ele>388.03</ele>
        <time>2014-11-10T13:57:37Z</time>
      </trkpt>
      <trkpt lat="43.3649" lon="2.71493">
        <ele>386.59</ele>
        <time>2014-11-10T13:57:53Z</time>
      </trkpt>
      <trkpt lat="43.36484" lon="2.71497">
        <ele>385.63</ele>
        <time>2014-11-10T13:58:03Z</time>
      </trkpt>
      <trkpt lat="43.36466" lon="2.7151">
        <ele>383.7</ele>
        <time>2014-11-10T13:58:23Z</time>
      </trkpt>
      <trkpt lat="43.36462" lon="2.71515">
        <ele>383.7</ele>
        <time>2014-11-10T13:58:27Z</time>
      </trkpt>
      <trkpt lat="43.36458" lon="2.71515">
        <ele>383.22</ele>
        <time>2014-11-10T13:58:31Z</time>
      </trkpt>
      <trkpt lat="43.36454" lon="2.71514">
        <ele>382.74</ele>
        <time>2014-11-10T13:58:43Z</time>
      </trkpt>
      <trkpt lat="43.36454" lon="2.71513">
        <ele>382.74</ele>
        <time>2014-11-10T13:59:03Z</time>
      </trkpt>
      <trkpt lat="43.36456" lon="2.71512">
        <ele>382.74</ele>
        <time>2014-11-10T13:59:15Z</time>
      </trkpt>
      <trkpt lat="43.36458" lon="2.71512">
        <ele>383.22</ele>
        <time>2014-11-10T13:59:16Z</time>
      </trkpt>
      <trkpt lat="43.36462" lon="2.7151">
        <ele>383.22</ele>
        <time>2014-11-10T13:59:27Z</time>
      </trkpt>
      <trkpt lat="43.36463" lon="2.71511">
        <ele>383.22</ele>
        <time>2014-11-10T13:59:48Z</time>
      </trkpt>
      <trkpt lat="43.36461" lon="2.71512">
        <ele>383.22</ele>
        <time>2014-11-10T13:59:50Z</time>
      </trkpt>
      <trkpt lat="43.36459" lon="2.71514">
        <ele>382.74</ele>
        <time>2014-11-10T13:59:52Z</time>
      </trkpt>
      <trkpt lat="43.36453" lon="2.71515">
        <ele>381.78</ele>
        <time>2014-11-10T13:59:57Z</time>
      </trkpt>
      <trkpt lat="43.36436" lon="2.7152">
        <ele>379.86</ele>
        <time>2014-11-10T14:00:12Z</time>
      </trkpt>
      <trkpt lat="43.36431" lon="2.71521">
        <ele>379.38</ele>
        <time>2014-11-10T14:00:17Z</time>
      </trkpt>
      <trkpt lat="43.36427" lon="2.71522">
        <ele>379.38</ele>
        <time>2014-11-10T14:00:20Z</time>
      </trkpt>
      <trkpt lat="43.36419" lon="2.71517">
        <ele>378.9</ele>
        <time>2014-11-10T14:00:26Z</time>
      </trkpt>
      <trkpt lat="43.36409" lon="2.71483">
        <ele>378.42</ele>
        <time>2014-11-10T14:00:46Z</time>
      </trkpt>
      <trkpt lat="43.36399" lon="2.71469">
        <ele>376.49</ele>
        <time>2014-11-10T14:00:57Z</time>
      </trkpt>
      <trkpt lat="43.36396" lon="2.71438">
        <ele>376.01</ele>
        <time>2014-11-10T14:01:15Z</time>
      </trkpt>
      <trkpt lat="43.36395" lon="2.71436">
        <ele>376.49</ele>
        <time>2014-11-10T14:01:16Z</time>
      </trkpt>
      <trkpt lat="43.36387" lon="2.71421">
        <ele>375.53</ele>
        <time>2014-11-10T14:01:27Z</time>
      </trkpt>
      <trkpt lat="43.36377" lon="2.71396">
        <ele>374.57</ele>
        <time>2014-11-10T14:01:35Z</time>
      </trkpt>
      <trkpt lat="43.36365" lon="2.71378">
        <ele>372.17</ele>
        <time>2014-11-10T14:01:49Z</time>
      </trkpt>
      <trkpt lat="43.36348" lon="2.7136">
        <ele>370.73</ele>
        <time>2014-11-10T14:02:05Z</time>
      </trkpt>
      <trkpt lat="43.36331" lon="2.71346">
        <ele>368.32</ele>
        <time>2014-11-10T14:02:20Z</time>
      </trkpt>
      <trkpt lat="43.36329" lon="2.71346">
        <ele>368.32</ele>
        <time>2014-11-10T14:02:22Z</time>
      </trkpt>
      <trkpt lat="43.36318" lon="2.71345">
        <ele>369.28</ele>
        <time>2014-11-10T14:02:31Z</time>
      </trkpt>
      <trkpt lat="43.3631" lon="2.71339">
        <ele>371.21</ele>
        <time>2014-11-10T14:02:39Z</time>
      </trkpt>
      <trkpt lat="43.36292" lon="2.71338">
        <ele>370.73</ele>
        <time>2014-11-10T14:02:53Z</time>
      </trkpt>
      <trkpt lat="43.36271" lon="2.71343">
        <ele>368.8</ele>
        <time>2014-11-10T14:03:09Z</time>
      </trkpt>
      <trkpt lat="43.36268" lon="2.71346">
        <ele>367.84</ele>
        <time>2014-11-10T14:03:12Z</time>
      </trkpt>
      <trkpt lat="43.36251" lon="2.71364">
        <ele>365.92</ele>
        <time>2014-11-10T14:03:28Z</time>
      </trkpt>
      <trkpt lat="43.3625" lon="2.71365">
        <ele>365.44</ele>
        <time>2014-11-10T14:03:29Z</time>
      </trkpt>
      <trkpt lat="43.36235" lon="2.71382">
        <ele>364</ele>
        <time>2014-11-10T14:03:43Z</time>
      </trkpt>
      <trkpt lat="43.36223" lon="2.71403">
        <ele>361.11</ele>
        <time>2014-11-10T14:03:56Z</time>
      </trkpt>
      <trkpt lat="43.36205" lon="2.71422">
        <ele>358.71</ele>
        <time>2014-11-10T14:04:09Z</time>
      </trkpt>
      <trkpt lat="43.36192" lon="2.7144">
        <ele>356.31</ele>
        <time>2014-11-10T14:04:19Z</time>
      </trkpt>
      <trkpt lat="43.36179" lon="2.71461">
        <ele>353.9</ele>
        <time>2014-11-10T14:04:32Z</time>
      </trkpt>
      <trkpt lat="43.36164" lon="2.71478">
        <ele>351.5</ele>
        <time>2014-11-10T14:04:46Z</time>
      </trkpt>
      <trkpt lat="43.36149" lon="2.71493">
        <ele>348.13</ele>
        <time>2014-11-10T14:05:01Z</time>
      </trkpt>
      <trkpt lat="43.36149" lon="2.71494">
        <ele>349.1</ele>
        <time>2014-11-10T14:05:02Z</time>
      </trkpt>
      <trkpt lat="43.3614" lon="2.71504">
        <ele>346.69</ele>
        <time>2014-11-10T14:05:11Z</time>
      </trkpt>
      <trkpt lat="43.36128" lon="2.71518">
        <ele>345.25</ele>
        <time>2014-11-10T14:05:24Z</time>
      </trkpt>
      <trkpt lat="43.36112" lon="2.71535">
        <ele>342.37</ele>
        <time>2014-11-10T14:05:39Z</time>
      </trkpt>
      <trkpt lat="43.36104" lon="2.71541">
        <ele>340.44</ele>
        <time>2014-11-10T14:05:46Z</time>
      </trkpt>
      <trkpt lat="43.36089" lon="2.71555">
        <ele>339</ele>
        <time>2014-11-10T14:06:04Z</time>
      </trkpt>
      <trkpt lat="43.36077" lon="2.71577">
        <ele>336.12</ele>
        <time>2014-11-10T14:06:20Z</time>
      </trkpt>
      <trkpt lat="43.36069" lon="2.71581">
        <ele>334.68</ele>
        <time>2014-11-10T14:06:33Z</time>
      </trkpt>
      <trkpt lat="43.36049" lon="2.716">
        <ele>331.79</ele>
        <time>2014-11-10T14:06:51Z</time>
      </trkpt>
      <trkpt lat="43.36027" lon="2.71614">
        <ele>328.91</ele>
        <time>2014-11-10T14:07:08Z</time>
      </trkpt>
      <trkpt lat="43.36026" lon="2.71615">
        <ele>328.91</ele>
        <time>2014-11-10T14:07:12Z</time>
      </trkpt>
      <trkpt lat="43.36008" lon="2.71629">
        <ele>325.06</ele>
        <time>2014-11-10T14:07:26Z</time>
      </trkpt>
      <trkpt lat="43.36006" lon="2.71631">
        <ele>325.06</ele>
        <time>2014-11-10T14:07:27Z</time>
      </trkpt>
      <trkpt lat="43.35986" lon="2.71649">
        <ele>322.18</ele>
        <time>2014-11-10T14:07:38Z</time>
      </trkpt>
      <trkpt lat="43.3598" lon="2.71652">
        <ele>321.7</ele>
        <time>2014-11-10T14:07:42Z</time>
      </trkpt>
      <trkpt lat="43.35966" lon="2.71659">
        <ele>319.78</ele>
        <time>2014-11-10T14:07:52Z</time>
      </trkpt>
      <trkpt lat="43.35946" lon="2.71646">
        <ele>317.85</ele>
        <time>2014-11-10T14:08:05Z</time>
      </trkpt>
      <trkpt lat="43.35934" lon="2.71624">
        <ele>317.37</ele>
        <time>2014-11-10T14:08:18Z</time>
      </trkpt>
      <trkpt lat="43.35934" lon="2.71622">
        <ele>317.37</ele>
        <time>2014-11-10T14:08:21Z</time>
      </trkpt>
      <trkpt lat="43.35933" lon="2.71614">
        <ele>316.89</ele>
        <time>2014-11-10T14:08:26Z</time>
      </trkpt>
      <trkpt lat="43.35931" lon="2.71611">
        <ele>316.89</ele>
        <time>2014-11-10T14:08:29Z</time>
      </trkpt>
      <trkpt lat="43.35927" lon="2.71605">
        <ele>315.45</ele>
        <time>2014-11-10T14:08:35Z</time>
      </trkpt>
      <trkpt lat="43.35925" lon="2.71604">
        <ele>314.97</ele>
        <time>2014-11-10T14:08:38Z</time>
      </trkpt>
      <trkpt lat="43.35914" lon="2.71602">
        <ele>313.53</ele>
        <time>2014-11-10T14:08:54Z</time>
      </trkpt>
      <trkpt lat="43.35908" lon="2.71605">
        <ele>313.53</ele>
        <time>2014-11-10T14:09:01Z</time>
      </trkpt>
      <trkpt lat="43.35904" lon="2.71608">
        <ele>313.53</ele>
        <time>2014-11-10T14:09:05Z</time>
      </trkpt>
      <trkpt lat="43.35894" lon="2.71626">
        <ele>313.05</ele>
        <time>2014-11-10T14:09:16Z</time>
      </trkpt>
      <trkpt lat="43.35882" lon="2.71644">
        <ele>311.6</ele>
        <time>2014-11-10T14:09:30Z</time>
      </trkpt>
      <trkpt lat="43.35868" lon="2.71666">
        <ele>311.12</ele>
        <time>2014-11-10T14:09:48Z</time>
      </trkpt>
      <trkpt lat="43.35856" lon="2.71671">
        <ele>310.16</ele>
        <time>2014-11-10T14:10:03Z</time>
      </trkpt>
      <trkpt lat="43.35839" lon="2.71675">
        <ele>309.2</ele>
        <time>2014-11-10T14:10:18Z</time>
      </trkpt>
      <trkpt lat="43.35824" lon="2.71679">
        <ele>307.28</ele>
        <time>2014-11-10T14:10:33Z</time>
      </trkpt>
      <trkpt lat="43.35812" lon="2.71689">
        <ele>305.84</ele>
        <time>2014-11-10T14:10:47Z</time>
      </trkpt>
      <trkpt lat="43.35803" lon="2.71692">
        <ele>304.88</ele>
        <time>2014-11-10T14:10:56Z</time>
      </trkpt>
      <trkpt lat="43.35786" lon="2.717">
        <ele>303.43</ele>
        <time>2014-11-10T14:11:12Z</time>
      </trkpt>
      <trkpt lat="43.35782" lon="2.71702">
        <ele>302.47</ele>
        <time>2014-11-10T14:11:15Z</time>
      </trkpt>
      <trkpt lat="43.35774" lon="2.71706">
        <ele>302.95</ele>
        <time>2014-11-10T14:11:22Z</time>
      </trkpt>
      <trkpt lat="43.35757" lon="2.7171">
        <ele>300.55</ele>
        <time>2014-11-10T14:11:39Z</time>
      </trkpt>
      <trkpt lat="43.35747" lon="2.71711">
        <ele>300.07</ele>
        <time>2014-11-10T14:11:56Z</time>
      </trkpt>
      <trkpt lat="43.35742" lon="2.71708">
        <ele>299.59</ele>
        <time>2014-11-10T14:12:12Z</time>
      </trkpt>
      <trkpt lat="43.35737" lon="2.71704">
        <ele>299.59</ele>
        <time>2014-11-10T14:12:18Z</time>
      </trkpt>
      <trkpt lat="43.35734" lon="2.71701">
        <ele>299.59</ele>
        <time>2014-11-10T14:12:21Z</time>
      </trkpt>
      <trkpt lat="43.35731" lon="2.71692">
        <ele>299.59</ele>
        <time>2014-11-10T14:12:33Z</time>
      </trkpt>
      <trkpt lat="43.35735" lon="2.71655">
        <ele>301.03</ele>
        <time>2014-11-10T14:12:55Z</time>
      </trkpt>
      <trkpt lat="43.35738" lon="2.71645">
        <ele>301.99</ele>
        <time>2014-11-10T14:13:05Z</time>
      </trkpt>
      <trkpt lat="43.35742" lon="2.71615">
        <ele>302.95</ele>
        <time>2014-11-10T14:13:23Z</time>
      </trkpt>
      <trkpt lat="43.35738" lon="2.71589">
        <ele>303.91</ele>
        <time>2014-11-10T14:13:39Z</time>
      </trkpt>
      <trkpt lat="43.35735" lon="2.71568">
        <ele>303.91</ele>
        <time>2014-11-10T14:13:55Z</time>
      </trkpt>
      <trkpt lat="43.3572" lon="2.7155">
        <ele>301.03</ele>
        <time>2014-11-10T14:14:12Z</time>
      </trkpt>
      <trkpt lat="43.35714" lon="2.71544">
        <ele>300.07</ele>
        <time>2014-11-10T14:14:19Z</time>
      </trkpt>
      <trkpt lat="43.35708" lon="2.71522">
        <ele>300.07</ele>
        <time>2014-11-10T14:14:35Z</time>
      </trkpt>
      <trkpt lat="43.35707" lon="2.71518">
        <ele>300.55</ele>
        <time>2014-11-10T14:14:38Z</time>
      </trkpt>
      <trkpt lat="43.35704" lon="2.71486">
        <ele>301.99</ele>
        <time>2014-11-10T14:14:59Z</time>
      </trkpt>
      <trkpt lat="43.35704" lon="2.71459">
        <ele>302.47</ele>
        <time>2014-11-10T14:15:16Z</time>
      </trkpt>
      <trkpt lat="43.35705" lon="2.71434">
        <ele>302.95</ele>
        <time>2014-11-10T14:15:33Z</time>
      </trkpt>
      <trkpt lat="43.35708" lon="2.71404">
        <ele>304.39</ele>
        <time>2014-11-10T14:15:52Z</time>
      </trkpt>
      <trkpt lat="43.35706" lon="2.71373">
        <ele>304.39</ele>
        <time>2014-11-10T14:16:12Z</time>
      </trkpt>
      <trkpt lat="43.35708" lon="2.71345">
        <ele>304.88</ele>
        <time>2014-11-10T14:16:30Z</time>
      </trkpt>
      <trkpt lat="43.35706" lon="2.71336">
        <ele>304.88</ele>
        <time>2014-11-10T14:16:35Z</time>
      </trkpt>
      <trkpt lat="43.35702" lon="2.71327">
        <ele>303.91</ele>
        <time>2014-11-10T14:16:42Z</time>
      </trkpt>
      <trkpt lat="43.35694" lon="2.71321">
        <ele>302.47</ele>
        <time>2014-11-10T14:16:50Z</time>
      </trkpt>
      <trkpt lat="43.35686" lon="2.71316">
        <ele>301.03</ele>
        <time>2014-11-10T14:16:58Z</time>
      </trkpt>
      <trkpt lat="43.35667" lon="2.71317">
        <ele>299.11</ele>
        <time>2014-11-10T14:17:14Z</time>
      </trkpt>
      <trkpt lat="43.35666" lon="2.71317">
        <ele>298.63</ele>
        <time>2014-11-10T14:17:15Z</time>
      </trkpt>
      <trkpt lat="43.35663" lon="2.71317">
        <ele>298.63</ele>
        <time>2014-11-10T14:17:31Z</time>
      </trkpt>
      <trkpt lat="43.3566" lon="2.71318">
        <ele>298.15</ele>
        <time>2014-11-10T14:17:50Z</time>
      </trkpt>
      <trkpt lat="43.35647" lon="2.71318">
        <ele>297.18</ele>
        <time>2014-11-10T14:18:02Z</time>
      </trkpt>
      <trkpt lat="43.35625" lon="2.71323">
        <ele>296.22</ele>
        <time>2014-11-10T14:18:22Z</time>
      </trkpt>
      <trkpt lat="43.3561" lon="2.71329">
        <ele>294.3</ele>
        <time>2014-11-10T14:18:38Z</time>
      </trkpt>
      <trkpt lat="43.35602" lon="2.71334">
        <ele>292.86</ele>
        <time>2014-11-10T14:18:50Z</time>
      </trkpt>
      <trkpt lat="43.35592" lon="2.71336">
        <ele>292.86</ele>
        <time>2014-11-10T14:19:08Z</time>
      </trkpt>
      <trkpt lat="43.35593" lon="2.71337">
        <ele>292.38</ele>
        <time>2014-11-10T14:19:19Z</time>
      </trkpt>
      <trkpt lat="43.3559" lon="2.7134">
        <ele>291.9</ele>
        <time>2014-11-10T14:19:22Z</time>
      </trkpt>
      <trkpt lat="43.35581" lon="2.71354">
        <ele>290.94</ele>
        <time>2014-11-10T14:19:37Z</time>
      </trkpt>
      <trkpt lat="43.35577" lon="2.71357">
        <ele>289.97</ele>
        <time>2014-11-10T14:19:41Z</time>
      </trkpt>
      <trkpt lat="43.35563" lon="2.71375">
        <ele>288.53</ele>
        <time>2014-11-10T14:20:00Z</time>
      </trkpt>
      <trkpt lat="43.35556" lon="2.7138">
        <ele>287.57</ele>
        <time>2014-11-10T14:20:10Z</time>
      </trkpt>
      <trkpt lat="43.35554" lon="2.7138">
        <ele>287.57</ele>
        <time>2014-11-10T14:20:12Z</time>
      </trkpt>
      <trkpt lat="43.3555" lon="2.71384">
        <ele>287.09</ele>
        <time>2014-11-10T14:20:16Z</time>
      </trkpt>
      <trkpt lat="43.35534" lon="2.71392">
        <ele>285.65</ele>
        <time>2014-11-10T14:20:34Z</time>
      </trkpt>
      <trkpt lat="43.35527" lon="2.71399">
        <ele>285.17</ele>
        <time>2014-11-10T14:20:43Z</time>
      </trkpt>
      <trkpt lat="43.35508" lon="2.71413">
        <ele>282.77</ele>
        <time>2014-11-10T14:21:05Z</time>
      </trkpt>
      <trkpt lat="43.35498" lon="2.71417">
        <ele>280.84</ele>
        <time>2014-11-10T14:21:21Z</time>
      </trkpt>
      <trkpt lat="43.35477" lon="2.71421">
        <ele>278.44</ele>
        <time>2014-11-10T14:21:41Z</time>
      </trkpt>
      <trkpt lat="43.3546" lon="2.71425">
        <ele>276.52</ele>
        <time>2014-11-10T14:22:01Z</time>
      </trkpt>
      <trkpt lat="43.35437" lon="2.71427">
        <ele>274.11</ele>
        <time>2014-11-10T14:22:23Z</time>
      </trkpt>
      <trkpt lat="43.35415" lon="2.71436">
        <ele>271.71</ele>
        <time>2014-11-10T14:22:45Z</time>
      </trkpt>
      <trkpt lat="43.35391" lon="2.71437">
        <ele>270.27</ele>
        <time>2014-11-10T14:23:06Z</time>
      </trkpt>
      <trkpt lat="43.35384" lon="2.71415">
        <ele>269.79</ele>
        <time>2014-11-10T14:23:24Z</time>
      </trkpt>
      <trkpt lat="43.35382" lon="2.71389">
        <ele>269.79</ele>
        <time>2014-11-10T14:23:48Z</time>
      </trkpt>
      <trkpt lat="43.35382" lon="2.71387">
        <ele>270.27</ele>
        <time>2014-11-10T14:23:49Z</time>
      </trkpt>
      <trkpt lat="43.35379" lon="2.71352">
        <ele>269.79</ele>
        <time>2014-11-10T14:24:11Z</time>
      </trkpt>
      <trkpt lat="43.35371" lon="2.71328">
        <ele>268.35</ele>
        <time>2014-11-10T14:24:24Z</time>
      </trkpt>
      <trkpt lat="43.35363" lon="2.71303">
        <ele>269.31</ele>
        <time>2014-11-10T14:24:42Z</time>
      </trkpt>
      <trkpt lat="43.3536" lon="2.71296">
        <ele>269.31</ele>
        <time>2014-11-10T14:24:57Z</time>
      </trkpt>
      <trkpt lat="43.35359" lon="2.71289">
        <ele>270.75</ele>
        <time>2014-11-10T14:25:13Z</time>
      </trkpt>
      <trkpt lat="43.35347" lon="2.71268">
        <ele>270.27</ele>
        <time>2014-11-10T14:25:34Z</time>
      </trkpt>
      <trkpt lat="43.35331" lon="2.71249">
        <ele>267.86</ele>
        <time>2014-11-10T14:25:54Z</time>
      </trkpt>
      <trkpt lat="43.35328" lon="2.71236">
        <ele>267.86</ele>
        <time>2014-11-10T14:26:06Z</time>
      </trkpt>
      <trkpt lat="43.3532" lon="2.71205">
        <ele>266.42</ele>
        <time>2014-11-10T14:26:29Z</time>
      </trkpt>
      <trkpt lat="43.35313" lon="2.7118">
        <ele>264.5</ele>
        <time>2014-11-10T14:26:49Z</time>
      </trkpt>
      <trkpt lat="43.353" lon="2.7115">
        <ele>263.54</ele>
        <time>2014-11-10T14:27:13Z</time>
      </trkpt>
      <trkpt lat="43.35288" lon="2.71121">
        <ele>261.62</ele>
        <time>2014-11-10T14:27:37Z</time>
      </trkpt>
      <trkpt lat="43.35282" lon="2.71101">
        <ele>259.69</ele>
        <time>2014-11-10T14:27:49Z</time>
      </trkpt>
      <trkpt lat="43.35295" lon="2.7108">
        <ele>262.1</ele>
        <time>2014-11-10T14:28:09Z</time>
      </trkpt>
      <trkpt lat="43.35301" lon="2.71054">
        <ele>261.62</ele>
        <time>2014-11-10T14:28:31Z</time>
      </trkpt>
      <trkpt lat="43.35294" lon="2.71039">
        <ele>261.14</ele>
        <time>2014-11-10T14:28:41Z</time>
      </trkpt>
      <trkpt lat="43.3528" lon="2.71022">
        <ele>260.17</ele>
        <time>2014-11-10T14:28:56Z</time>
      </trkpt>
      <trkpt lat="43.35267" lon="2.71011">
        <ele>258.73</ele>
        <time>2014-11-10T14:29:08Z</time>
      </trkpt>
      <trkpt lat="43.35248" lon="2.70986">
        <ele>258.25</ele>
        <time>2014-11-10T14:29:31Z</time>
      </trkpt>
      <trkpt lat="43.35239" lon="2.70953">
        <ele>258.25</ele>
        <time>2014-11-10T14:29:55Z</time>
      </trkpt>
      <trkpt lat="43.35235" lon="2.70921">
        <ele>258.25</ele>
        <time>2014-11-10T14:30:17Z</time>
      </trkpt>
      <trkpt lat="43.35213" lon="2.70901">
        <ele>256.33</ele>
        <time>2014-11-10T14:30:39Z</time>
      </trkpt>
      <trkpt lat="43.3519" lon="2.70879">
        <ele>253.93</ele>
        <time>2014-11-10T14:31:02Z</time>
      </trkpt>
      <trkpt lat="43.35172" lon="2.70854">
        <ele>251.04</ele>
        <time>2014-11-10T14:31:25Z</time>
      </trkpt>
      <trkpt lat="43.35148" lon="2.70837">
        <ele>248.16</ele>
        <time>2014-11-10T14:31:48Z</time>
      </trkpt>
      <trkpt lat="43.3513" lon="2.70835">
        <ele>246.72</ele>
        <time>2014-11-10T14:32:03Z</time>
      </trkpt>
      <trkpt lat="43.35108" lon="2.70832">
        <ele>244.31</ele>
        <time>2014-11-10T14:32:23Z</time>
      </trkpt>
      <trkpt lat="43.3509" lon="2.70817">
        <ele>244.31</ele>
        <time>2014-11-10T14:32:43Z</time>
      </trkpt>
      <trkpt lat="43.35086" lon="2.70809">
        <ele>244.31</ele>
        <time>2014-11-10T14:32:56Z</time>
      </trkpt>
      <trkpt lat="43.35083" lon="2.70807">
        <ele>244.31</ele>
        <time>2014-11-10T14:33:00Z</time>
      </trkpt>
      <trkpt lat="43.35075" lon="2.70803">
        <ele>243.83</ele>
        <time>2014-11-10T14:33:14Z</time>
      </trkpt>
      <trkpt lat="43.35075" lon="2.70801">
        <ele>244.79</ele>
        <time>2014-11-10T14:33:26Z</time>
      </trkpt>
      <trkpt lat="43.35071" lon="2.70801">
        <ele>243.35</ele>
        <time>2014-11-10T14:33:30Z</time>
      </trkpt>
      <trkpt lat="43.35055" lon="2.70795">
        <ele>243.35</ele>
        <time>2014-11-10T14:33:47Z</time>
      </trkpt>
      <trkpt lat="43.3505" lon="2.70794">
        <ele>242.39</ele>
        <time>2014-11-10T14:33:53Z</time>
      </trkpt>
      <trkpt lat="43.3502" lon="2.70807">
        <ele>239.99</ele>
        <time>2014-11-10T14:34:15Z</time>
      </trkpt>
      <trkpt lat="43.34994" lon="2.70812">
        <ele>238.06</ele>
        <time>2014-11-10T14:34:35Z</time>
      </trkpt>
      <trkpt lat="43.34985" lon="2.70808">
        <ele>238.06</ele>
        <time>2014-11-10T14:34:47Z</time>
      </trkpt>
      <trkpt lat="43.34986" lon="2.70806">
        <ele>237.1</ele>
        <time>2014-11-10T14:35:05Z</time>
      </trkpt>
      <trkpt lat="43.34987" lon="2.70794">
        <ele>234.22</ele>
        <time>2014-11-10T14:35:21Z</time>
      </trkpt>
      <trkpt lat="43.34991" lon="2.70789">
        <ele>232.3</ele>
        <time>2014-11-10T14:35:35Z</time>
      </trkpt>
      <trkpt lat="43.34996" lon="2.70779">
        <ele>230.37</ele>
        <time>2014-11-10T14:35:48Z</time>
      </trkpt>
      <trkpt lat="43.34999" lon="2.70773">
        <ele>228.93</ele>
        <time>2014-11-10T14:35:59Z</time>
      </trkpt>
      <trkpt lat="43.35006" lon="2.70756">
        <ele>226.05</ele>
        <time>2014-11-10T14:36:13Z</time>
      </trkpt>
      <trkpt lat="43.35003" lon="2.70758">
        <ele>225.57</ele>
        <time>2014-11-10T14:36:22Z</time>
      </trkpt>
      <trkpt lat="43.34994" lon="2.70766">
        <ele>224.12</ele>
        <time>2014-11-10T14:36:38Z</time>
      </trkpt>
      <trkpt lat="43.34991" lon="2.70768">
        <ele>223.16</ele>
        <time>2014-11-10T14:36:53Z</time>
      </trkpt>
      <trkpt lat="43.34984" lon="2.70771">
        <ele>220.28</ele>
        <time>2014-11-10T14:37:08Z</time>
      </trkpt>
      <trkpt lat="43.3498" lon="2.70774">
        <ele>218.84</ele>
        <time>2014-11-10T14:37:24Z</time>
      </trkpt>
      <trkpt lat="43.34983" lon="2.70769">
        <ele>217.4</ele>
        <time>2014-11-10T14:37:43Z</time>
      </trkpt>
      <trkpt lat="43.34988" lon="2.70752">
        <ele>214.51</ele>
        <time>2014-11-10T14:38:01Z</time>
      </trkpt>
      <trkpt lat="43.34989" lon="2.70748">
        <ele>214.99</ele>
        <time>2014-11-10T14:38:14Z</time>
      </trkpt>
      <trkpt lat="43.34988" lon="2.70747">
        <ele>214.03</ele>
        <time>2014-11-10T14:38:34Z</time>
      </trkpt>
      <trkpt lat="43.34988" lon="2.70747">
        <ele>214.03</ele>
        <time>2014-11-10T14:38:55Z</time>
      </trkpt>
      <trkpt lat="43.34988" lon="2.70748">
        <ele>214.51</ele>
        <time>2014-11-10T14:39:18Z</time>
      </trkpt>
      <trkpt lat="43.34989" lon="2.70747">
        <ele>214.03</ele>
        <time>2014-11-10T14:39:40Z</time>
      </trkpt>
      <trkpt lat="43.34988" lon="2.70744">
        <ele>214.51</ele>
        <time>2014-11-10T14:40:03Z</time>
      </trkpt>
      <trkpt lat="43.34992" lon="2.70741">
        <ele>212.59</ele>
        <time>2014-11-10T14:40:17Z</time>
      </trkpt>
      <trkpt lat="43.34997" lon="2.70736">
        <ele>210.67</ele>
        <time>2014-11-10T14:40:33Z</time>
      </trkpt>
      <trkpt lat="43.35001" lon="2.70731">
        <ele>209.7</ele>
        <time>2014-11-10T14:40:59Z</time>
      </trkpt>
      <trkpt lat="43.35005" lon="2.70721">
        <ele>206.82</ele>
        <time>2014-11-10T14:41:09Z</time>
      </trkpt>
      <trkpt lat="43.35015" lon="2.70711">
        <ele>204.9</ele>
        <time>2014-11-10T14:41:21Z</time>
      </trkpt>
      <trkpt lat="43.35026" lon="2.70689">
        <ele>201.53</ele>
        <time>2014-11-10T14:41:37Z</time>
      </trkpt>
      <trkpt lat="43.35027" lon="2.70687">
        <ele>200.09</ele>
        <time>2014-11-10T14:41:39Z</time>
      </trkpt>
      <trkpt lat="43.35031" lon="2.70675">
        <ele>197.21</ele>
        <time>2014-11-10T14:41:51Z</time>
      </trkpt>
      <trkpt lat="43.35027" lon="2.70673">
        <ele>194.32</ele>
        <time>2014-11-10T14:42:09Z</time>
      </trkpt>
      <trkpt lat="43.35016" lon="2.70677">
        <ele>191.44</ele>
        <time>2014-11-10T14:42:30Z</time>
      </trkpt>
      <trkpt lat="43.35014" lon="2.70672">
        <ele>190.48</ele>
        <time>2014-11-10T14:42:49Z</time>
      </trkpt>
      <trkpt lat="43.35012" lon="2.70666">
        <ele>188.08</ele>
        <time>2014-11-10T14:43:08Z</time>
      </trkpt>
      <trkpt lat="43.3502" lon="2.70657">
        <ele>186.15</ele>
        <time>2014-11-10T14:43:29Z</time>
      </trkpt>
      <trkpt lat="43.35024" lon="2.70647">
        <ele>185.67</ele>
        <time>2014-11-10T14:43:47Z</time>
      </trkpt>
      <trkpt lat="43.35029" lon="2.7064">
        <ele>184.23</ele>
        <time>2014-11-10T14:44:01Z</time>
      </trkpt>
      <trkpt lat="43.35025" lon="2.70633">
        <ele>184.71</ele>
        <time>2014-11-10T14:44:16Z</time>
      </trkpt>
      <trkpt lat="43.35022" lon="2.70636">
        <ele>184.23</ele>
        <time>2014-11-10T14:44:33Z</time>
      </trkpt>
      <trkpt lat="43.35022" lon="2.70636">
        <ele>184.71</ele>
        <time>2014-11-10T14:44:57Z</time>
      </trkpt>
      <trkpt lat="43.35025" lon="2.70637">
        <ele>184.23</ele>
        <time>2014-11-10T14:45:12Z</time>
      </trkpt>
      <trkpt lat="43.35025" lon="2.70636">
        <ele>184.23</ele>
        <time>2014-11-10T14:45:29Z</time>
      </trkpt>
      <trkpt lat="43.35026" lon="2.70636">
        <ele>183.75</ele>
        <time>2014-11-10T14:45:49Z</time>
      </trkpt>
      <trkpt lat="43.35025" lon="2.70637">
        <ele>184.23</ele>
        <time>2014-11-10T14:46:06Z</time>
      </trkpt>
      <trkpt lat="43.35025" lon="2.70636">
        <ele>183.75</ele>
        <time>2014-11-10T14:46:22Z</time>
      </trkpt>
      <trkpt lat="43.35026" lon="2.70637">
        <ele>183.75</ele>
        <time>2014-11-10T14:46:39Z</time>
      </trkpt>
      <trkpt lat="43.35026" lon="2.70636">
        <ele>183.75</ele>
        <time>2014-11-10T14:46:53Z</time>
      </trkpt>
      <trkpt lat="43.35026" lon="2.70637">
        <ele>183.75</ele>
        <time>2014-11-10T14:47:07Z</time>
      </trkpt>
      <trkpt lat="43.35029" lon="2.70631">
        <ele>184.23</ele>
        <time>2014-11-10T14:47:25Z</time>
      </trkpt>
      <trkpt lat="43.35029" lon="2.70619">
        <ele>184.71</ele>
        <time>2014-11-10T14:47:41Z</time>
      </trkpt>
      <trkpt lat="43.35027" lon="2.70614">
        <ele>185.19</ele>
        <time>2014-11-10T14:47:56Z</time>
      </trkpt>
      <trkpt lat="43.35032" lon="2.70612">
        <ele>185.19</ele>
        <time>2014-11-10T14:48:17Z</time>
      </trkpt>
      <trkpt lat="43.35026" lon="2.70619">
        <ele>185.67</ele>
        <time>2014-11-10T14:48:31Z</time>
      </trkpt>
      <trkpt lat="43.35026" lon="2.70616">
        <ele>186.15</ele>
        <time>2014-11-10T14:48:43Z</time>
      </trkpt>
      <trkpt lat="43.35023" lon="2.70612">
        <ele>188.56</ele>
        <time>2014-11-10T14:48:56Z</time>
      </trkpt>
      <trkpt lat="43.35025" lon="2.70609">
        <ele>189.04</ele>
        <time>2014-11-10T14:49:07Z</time>
      </trkpt>
      <trkpt lat="43.35026" lon="2.70607">
        <ele>188.56</ele>
        <time>2014-11-10T14:49:19Z</time>
      </trkpt>
      <trkpt lat="43.35028" lon="2.70606">
        <ele>187.59</ele>
        <time>2014-11-10T14:49:28Z</time>
      </trkpt>
      <trkpt lat="43.35034" lon="2.70607">
        <ele>186.63</ele>
        <time>2014-11-10T14:49:42Z</time>
      </trkpt>
      <trkpt lat="43.35037" lon="2.70607">
        <ele>186.15</ele>
        <time>2014-11-10T14:49:55Z</time>
      </trkpt>
      <trkpt lat="43.35037" lon="2.70607">
        <ele>187.11</ele>
        <time>2014-11-10T14:50:16Z</time>
      </trkpt>
      <trkpt lat="43.35035" lon="2.70606">
        <ele>187.59</ele>
        <time>2014-11-10T14:50:27Z</time>
      </trkpt>
      <trkpt lat="43.35035" lon="2.70606">
        <ele>188.08</ele>
        <time>2014-11-10T14:50:43Z</time>
      </trkpt>
      <trkpt lat="43.35031" lon="2.70605">
        <ele>188.56</ele>
        <time>2014-11-10T14:50:54Z</time>
      </trkpt>
      <trkpt lat="43.35032" lon="2.70604">
        <ele>187.59</ele>
        <time>2014-11-10T14:51:14Z</time>
      </trkpt>
      <trkpt lat="43.35034" lon="2.70607">
        <ele>188.08</ele>
        <time>2014-11-10T14:51:31Z</time>
      </trkpt>
      <trkpt lat="43.35041" lon="2.70603">
        <ele>188.08</ele>
        <time>2014-11-10T14:51:54Z</time>
      </trkpt>
      <trkpt lat="43.35039" lon="2.70604">
        <ele>188.08</ele>
        <time>2014-11-10T14:52:16Z</time>
      </trkpt>
      <trkpt lat="43.35032" lon="2.70602">
        <ele>188.56</ele>
        <time>2014-11-10T14:52:36Z</time>
      </trkpt>
      <trkpt lat="43.35029" lon="2.70607">
        <ele>190</ele>
        <time>2014-11-10T14:53:00Z</time>
      </trkpt>
      <trkpt lat="43.35032" lon="2.70608">
        <ele>190</ele>
        <time>2014-11-10T14:53:19Z</time>
      </trkpt>
      <trkpt lat="43.35029" lon="2.70606">
        <ele>190</ele>
        <time>2014-11-10T14:53:39Z</time>
      </trkpt>
      <trkpt lat="43.35028" lon="2.70607">
        <ele>190</ele>
        <time>2014-11-10T14:54:02Z</time>
      </trkpt>
      <trkpt lat="43.35025" lon="2.70606">
        <ele>190.48</ele>
        <time>2014-11-10T14:54:27Z</time>
      </trkpt>
      <trkpt lat="43.35023" lon="2.70605">
        <ele>190.48</ele>
        <time>2014-11-10T14:54:33Z</time>
      </trkpt>
      <trkpt lat="43.3502" lon="2.706">
        <ele>190.48</ele>
        <time>2014-11-10T14:54:54Z</time>
      </trkpt>
      <trkpt lat="43.35022" lon="2.70601">
        <ele>190.48</ele>
        <time>2014-11-10T14:55:22Z</time>
      </trkpt>
      <trkpt lat="43.35026" lon="2.70598">
        <ele>191.44</ele>
        <time>2014-11-10T14:55:39Z</time>
      </trkpt>
      <trkpt lat="43.35027" lon="2.70597">
        <ele>192.4</ele>
        <time>2014-11-10T14:55:54Z</time>
      </trkpt>
      <trkpt lat="43.35029" lon="2.70593">
        <ele>192.88</ele>
        <time>2014-11-10T14:56:12Z</time>
      </trkpt>
      <trkpt lat="43.35026" lon="2.70592">
        <ele>195.28</ele>
        <time>2014-11-10T14:56:25Z</time>
      </trkpt>
      <trkpt lat="43.35012" lon="2.70597">
        <ele>198.65</ele>
        <time>2014-11-10T14:56:44Z</time>
      </trkpt>
      <trkpt lat="43.35001" lon="2.70591">
        <ele>201.05</ele>
        <time>2014-11-10T14:57:05Z</time>
      </trkpt>
      <trkpt lat="43.35001" lon="2.70583">
        <ele>203.94</ele>
        <time>2014-11-10T14:57:26Z</time>
      </trkpt>
      <trkpt lat="43.34996" lon="2.70587">
        <ele>205.86</ele>
        <time>2014-11-10T14:57:45Z</time>
      </trkpt>
      <trkpt lat="43.34994" lon="2.70588">
        <ele>206.82</ele>
        <time>2014-11-10T14:57:59Z</time>
      </trkpt>
      <trkpt lat="43.34981" lon="2.70602">
        <ele>207.78</ele>
        <time>2014-11-10T14:58:20Z</time>
      </trkpt>
      <trkpt lat="43.34977" lon="2.70592">
        <ele>211.15</ele>
        <time>2014-11-10T14:58:41Z</time>
      </trkpt>
      <trkpt lat="43.34981" lon="2.70591">
        <ele>211.15</ele>
        <time>2014-11-10T14:59:01Z</time>
      </trkpt>
      <trkpt lat="43.34995" lon="2.70583">
        <ele>212.59</ele>
        <time>2014-11-10T14:59:19Z</time>
      </trkpt>
      <trkpt lat="43.34998" lon="2.70573">
        <ele>214.51</ele>
        <time>2014-11-10T14:59:39Z</time>
      </trkpt>
      <trkpt lat="43.34999" lon="2.70554">
        <ele>215.95</ele>
        <time>2014-11-10T14:59:56Z</time>
      </trkpt>
      <trkpt lat="43.34998" lon="2.70557">
        <ele>216.91</ele>
        <time>2014-11-10T15:00:15Z</time>
      </trkpt>
      <trkpt lat="43.34994" lon="2.70561">
        <ele>217.4</ele>
        <time>2014-11-10T15:00:37Z</time>
      </trkpt>
      <trkpt lat="43.34982" lon="2.70576">
        <ele>219.8</ele>
        <time>2014-11-10T15:00:55Z</time>
      </trkpt>
      <trkpt lat="43.34975" lon="2.70578">
        <ele>223.16</ele>
        <time>2014-11-10T15:01:07Z</time>
      </trkpt>
      <trkpt lat="43.34967" lon="2.70581">
        <ele>225.09</ele>
        <time>2014-11-10T15:01:25Z</time>
      </trkpt>
      <trkpt lat="43.34966" lon="2.70597">
        <ele>226.53</ele>
        <time>2014-11-10T15:01:41Z</time>
      </trkpt>
      <trkpt lat="43.34966" lon="2.70596">
        <ele>226.53</ele>
        <time>2014-11-10T15:02:01Z</time>
      </trkpt>
      <trkpt lat="43.34965" lon="2.70592">
        <ele>227.97</ele>
        <time>2014-11-10T15:02:21Z</time>
      </trkpt>
      <trkpt lat="43.34962" lon="2.70577">
        <ele>231.33</ele>
        <time>2014-11-10T15:02:40Z</time>
      </trkpt>
      <trkpt lat="43.34957" lon="2.70594">
        <ele>232.3</ele>
        <time>2014-11-10T15:02:58Z</time>
      </trkpt>
      <trkpt lat="43.34956" lon="2.70608">
        <ele>232.78</ele>
        <time>2014-11-10T15:03:17Z</time>
      </trkpt>
      <trkpt lat="43.34952" lon="2.70613">
        <ele>233.74</ele>
        <time>2014-11-10T15:03:37Z</time>
      </trkpt>
      <trkpt lat="43.34942" lon="2.706">
        <ele>236.62</ele>
        <time>2014-11-10T15:03:56Z</time>
      </trkpt>
      <trkpt lat="43.34934" lon="2.70594">
        <ele>239.51</ele>
        <time>2014-11-10T15:04:16Z</time>
      </trkpt>
      <trkpt lat="43.34926" lon="2.70584">
        <ele>240.47</ele>
        <time>2014-11-10T15:04:34Z</time>
      </trkpt>
      <trkpt lat="43.34924" lon="2.70586">
        <ele>241.91</ele>
        <time>2014-11-10T15:04:37Z</time>
      </trkpt>
      <trkpt lat="43.34915" lon="2.70599">
        <ele>242.87</ele>
        <time>2014-11-10T15:04:57Z</time>
      </trkpt>
      <trkpt lat="43.34917" lon="2.70599">
        <ele>242.39</ele>
        <time>2014-11-10T15:05:11Z</time>
      </trkpt>
      <trkpt lat="43.34922" lon="2.70598">
        <ele>241.91</ele>
        <time>2014-11-10T15:05:28Z</time>
      </trkpt>
      <trkpt lat="43.3492" lon="2.70599">
        <ele>241.91</ele>
        <time>2014-11-10T15:05:44Z</time>
      </trkpt>
      <trkpt lat="43.34918" lon="2.70603">
        <ele>241.43</ele>
        <time>2014-11-10T15:05:59Z</time>
      </trkpt>
      <trkpt lat="43.34916" lon="2.70601">
        <ele>241.91</ele>
        <time>2014-11-10T15:06:14Z</time>
      </trkpt>
      <trkpt lat="43.34911" lon="2.70604">
        <ele>241.91</ele>
        <time>2014-11-10T15:06:19Z</time>
      </trkpt>
      <trkpt lat="43.349" lon="2.70604">
        <ele>241.91</ele>
        <time>2014-11-10T15:06:35Z</time>
      </trkpt>
      <trkpt lat="43.34882" lon="2.70612">
        <ele>241.43</ele>
        <time>2014-11-10T15:06:55Z</time>
      </trkpt>
      <trkpt lat="43.3486" lon="2.70622">
        <ele>240.95</ele>
        <time>2014-11-10T15:07:19Z</time>
      </trkpt>
      <trkpt lat="43.34857" lon="2.70623">
        <ele>240.47</ele>
        <time>2014-11-10T15:07:23Z</time>
      </trkpt>
      <trkpt lat="43.34839" lon="2.7063">
        <ele>240.47</ele>
        <time>2014-11-10T15:07:42Z</time>
      </trkpt>
      <trkpt lat="43.34825" lon="2.70637">
        <ele>239.99</ele>
        <time>2014-11-10T15:07:59Z</time>
      </trkpt>
      <trkpt lat="43.34805" lon="2.70642">
        <ele>238.54</ele>
        <time>2014-11-10T15:08:20Z</time>
      </trkpt>
      <trkpt lat="43.34785" lon="2.70649">
        <ele>237.58</ele>
        <time>2014-11-10T15:08:37Z</time>
      </trkpt>
      <trkpt lat="43.34766" lon="2.70649">
        <ele>234.7</ele>
        <time>2014-11-10T15:08:57Z</time>
      </trkpt>
      <trkpt lat="43.3475" lon="2.7065">
        <ele>232.78</ele>
        <time>2014-11-10T15:09:14Z</time>
      </trkpt>
      <trkpt lat="43.34726" lon="2.70649">
        <ele>230.85</ele>
        <time>2014-11-10T15:09:37Z</time>
      </trkpt>
      <trkpt lat="43.34703" lon="2.70645">
        <ele>229.41</ele>
        <time>2014-11-10T15:10:00Z</time>
      </trkpt>
      <trkpt lat="43.34684" lon="2.7065">
        <ele>227.97</ele>
        <time>2014-11-10T15:10:22Z</time>
      </trkpt>
      <trkpt lat="43.34663" lon="2.70646">
        <ele>227.97</ele>
        <time>2014-11-10T15:10:43Z</time>
      </trkpt>
      <trkpt lat="43.34639" lon="2.70643">
        <ele>227.01</ele>
        <time>2014-11-10T15:11:06Z</time>
      </trkpt>
      <trkpt lat="43.34617" lon="2.70644">
        <ele>228.93</ele>
        <time>2014-11-10T15:11:27Z</time>
      </trkpt>
      <trkpt lat="43.34613" lon="2.70655">
        <ele>230.37</ele>
        <time>2014-11-10T15:11:47Z</time>
      </trkpt>
      <trkpt lat="43.34624" lon="2.70682">
        <ele>228.93</ele>
        <time>2014-11-10T15:12:10Z</time>
      </trkpt>
      <trkpt lat="43.34626" lon="2.70685">
        <ele>228.93</ele>
        <time>2014-11-10T15:12:13Z</time>
      </trkpt>
      <trkpt lat="43.34638" lon="2.70711">
        <ele>229.41</ele>
        <time>2014-11-10T15:12:34Z</time>
      </trkpt>
      <trkpt lat="43.34655" lon="2.70732">
        <ele>227.49</ele>
        <time>2014-11-10T15:12:56Z</time>
      </trkpt>
      <trkpt lat="43.34656" lon="2.70734">
        <ele>227.49</ele>
        <time>2014-11-10T15:12:57Z</time>
      </trkpt>
      <trkpt lat="43.34667" lon="2.70764">
        <ele>225.57</ele>
        <time>2014-11-10T15:13:19Z</time>
      </trkpt>
      <trkpt lat="43.34675" lon="2.70797">
        <ele>224.12</ele>
        <time>2014-11-10T15:13:43Z</time>
      </trkpt>
      <trkpt lat="43.34673" lon="2.70814">
        <ele>223.64</ele>
        <time>2014-11-10T15:13:55Z</time>
      </trkpt>
      <trkpt lat="43.34667" lon="2.70859">
        <ele>221.24</ele>
        <time>2014-11-10T15:14:23Z</time>
      </trkpt>
      <trkpt lat="43.34653" lon="2.70888">
        <ele>218.84</ele>
        <time>2014-11-10T15:14:45Z</time>
      </trkpt>
      <trkpt lat="43.3463" lon="2.70907">
        <ele>217.4</ele>
        <time>2014-11-10T15:15:08Z</time>
      </trkpt>
      <trkpt lat="43.34612" lon="2.7093">
        <ele>215.95</ele>
        <time>2014-11-10T15:15:29Z</time>
      </trkpt>
      <trkpt lat="43.34603" lon="2.70949">
        <ele>215.95</ele>
        <time>2014-11-10T15:15:46Z</time>
      </trkpt>
      <trkpt lat="43.34592" lon="2.70981">
        <ele>214.99</ele>
        <time>2014-11-10T15:16:09Z</time>
      </trkpt>
      <trkpt lat="43.34579" lon="2.71013">
        <ele>213.55</ele>
        <time>2014-11-10T15:16:32Z</time>
      </trkpt>
      <trkpt lat="43.34573" lon="2.71041">
        <ele>212.59</ele>
        <time>2014-11-10T15:16:53Z</time>
      </trkpt>
      <trkpt lat="43.34568" lon="2.7107">
        <ele>211.63</ele>
        <time>2014-11-10T15:17:14Z</time>
      </trkpt>
      <trkpt lat="43.34564" lon="2.71103">
        <ele>210.19</ele>
        <time>2014-11-10T15:17:36Z</time>
      </trkpt>
      <trkpt lat="43.34561" lon="2.71133">
        <ele>208.74</ele>
        <time>2014-11-10T15:17:56Z</time>
      </trkpt>
      <trkpt lat="43.34558" lon="2.71164">
        <ele>207.78</ele>
        <time>2014-11-10T15:18:16Z</time>
      </trkpt>
      <trkpt lat="43.34558" lon="2.71191">
        <ele>206.82</ele>
        <time>2014-11-10T15:18:36Z</time>
      </trkpt>
      <trkpt lat="43.34559" lon="2.71199">
        <ele>205.38</ele>
        <time>2014-11-10T15:18:43Z</time>
      </trkpt>
      <trkpt lat="43.34561" lon="2.71197">
        <ele>205.86</ele>
        <time>2014-11-10T15:18:55Z</time>
      </trkpt>
      <trkpt lat="43.34561" lon="2.71193">
        <ele>205.86</ele>
        <time>2014-11-10T15:19:12Z</time>
      </trkpt>
      <trkpt lat="43.34563" lon="2.71227">
        <ele>204.9</ele>
        <time>2014-11-10T15:19:30Z</time>
      </trkpt>
      <trkpt lat="43.34574" lon="2.71263">
        <ele>203.46</ele>
        <time>2014-11-10T15:19:53Z</time>
      </trkpt>
      <trkpt lat="43.34568" lon="2.71301">
        <ele>202.49</ele>
        <time>2014-11-10T15:20:16Z</time>
      </trkpt>
      <trkpt lat="43.34566" lon="2.71316">
        <ele>202.49</ele>
        <time>2014-11-10T15:20:23Z</time>
      </trkpt>
      <trkpt lat="43.34555" lon="2.71349">
        <ele>201.53</ele>
        <time>2014-11-10T15:20:46Z</time>
      </trkpt>
      <trkpt lat="43.34546" lon="2.71374">
        <ele>200.57</ele>
        <time>2014-11-10T15:21:05Z</time>
      </trkpt>
      <trkpt lat="43.34539" lon="2.71403">
        <ele>200.57</ele>
        <time>2014-11-10T15:21:25Z</time>
      </trkpt>
      <trkpt lat="43.34551" lon="2.71425">
        <ele>201.05</ele>
        <time>2014-11-10T15:21:47Z</time>
      </trkpt>
      <trkpt lat="43.34578" lon="2.7143">
        <ele>202.49</ele>
        <time>2014-11-10T15:22:11Z</time>
      </trkpt>
      <trkpt lat="43.34592" lon="2.71433">
        <ele>203.94</ele>
        <time>2014-11-10T15:22:24Z</time>
      </trkpt>
      <trkpt lat="43.34608" lon="2.71431">
        <ele>203.94</ele>
        <time>2014-11-10T15:22:45Z</time>
      </trkpt>
      <trkpt lat="43.34609" lon="2.7143">
        <ele>204.9</ele>
        <time>2014-11-10T15:23:08Z</time>
      </trkpt>
      <trkpt lat="43.34625" lon="2.71438">
        <ele>205.38</ele>
        <time>2014-11-10T15:23:29Z</time>
      </trkpt>
      <trkpt lat="43.34646" lon="2.71449">
        <ele>206.34</ele>
        <time>2014-11-10T15:23:51Z</time>
      </trkpt>
      <trkpt lat="43.34668" lon="2.71459">
        <ele>206.34</ele>
        <time>2014-11-10T15:24:12Z</time>
      </trkpt>
      <trkpt lat="43.34689" lon="2.71475">
        <ele>207.3</ele>
        <time>2014-11-10T15:24:36Z</time>
      </trkpt>
      <trkpt lat="43.3469" lon="2.71485">
        <ele>207.78</ele>
        <time>2014-11-10T15:24:46Z</time>
      </trkpt>
      <trkpt lat="43.34706" lon="2.71511">
        <ele>207.78</ele>
        <time>2014-11-10T15:25:10Z</time>
      </trkpt>
      <trkpt lat="43.3472" lon="2.71542">
        <ele>208.26</ele>
        <time>2014-11-10T15:25:34Z</time>
      </trkpt>
      <trkpt lat="43.34731" lon="2.71566">
        <ele>209.22</ele>
        <time>2014-11-10T15:25:55Z</time>
      </trkpt>
      <trkpt lat="43.34753" lon="2.71588">
        <ele>209.7</ele>
        <time>2014-11-10T15:26:20Z</time>
      </trkpt>
      <trkpt lat="43.34761" lon="2.71592">
        <ele>210.19</ele>
        <time>2014-11-10T15:26:29Z</time>
      </trkpt>
      <trkpt lat="43.34784" lon="2.71603">
        <ele>210.67</ele>
        <time>2014-11-10T15:26:52Z</time>
      </trkpt>
      <trkpt lat="43.34798" lon="2.7161">
        <ele>210.67</ele>
        <time>2014-11-10T15:27:08Z</time>
      </trkpt>
      <trkpt lat="43.34818" lon="2.71619">
        <ele>210.67</ele>
        <time>2014-11-10T15:27:28Z</time>
      </trkpt>
      <trkpt lat="43.34839" lon="2.7162">
        <ele>211.63</ele>
        <time>2014-11-10T15:27:48Z</time>
      </trkpt>
      <trkpt lat="43.34849" lon="2.71616">
        <ele>211.63</ele>
        <time>2014-11-10T15:28:00Z</time>
      </trkpt>
      <trkpt lat="43.34852" lon="2.71619">
        <ele>212.11</ele>
        <time>2014-11-10T15:28:15Z</time>
      </trkpt>
      <trkpt lat="43.34848" lon="2.71617">
        <ele>212.59</ele>
        <time>2014-11-10T15:28:28Z</time>
      </trkpt>
      <trkpt lat="43.34846" lon="2.7162">
        <ele>212.11</ele>
        <time>2014-11-10T15:28:36Z</time>
      </trkpt>
      <trkpt lat="43.34838" lon="2.7165">
        <ele>211.63</ele>
        <time>2014-11-10T15:28:56Z</time>
      </trkpt>
      <trkpt lat="43.34834" lon="2.71684">
        <ele>211.15</ele>
        <time>2014-11-10T15:29:16Z</time>
      </trkpt>
      <trkpt lat="43.34823" lon="2.71717">
        <ele>209.7</ele>
        <time>2014-11-10T15:29:37Z</time>
      </trkpt>
      <trkpt lat="43.34809" lon="2.71745">
        <ele>209.22</ele>
        <time>2014-11-10T15:29:56Z</time>
      </trkpt>
      <trkpt lat="43.34799" lon="2.71773">
        <ele>208.26</ele>
        <time>2014-11-10T15:30:14Z</time>
      </trkpt>
      <trkpt lat="43.34794" lon="2.71786">
        <ele>208.26</ele>
        <time>2014-11-10T15:30:21Z</time>
      </trkpt>
      <trkpt lat="43.34793" lon="2.71805">
        <ele>207.3</ele>
        <time>2014-11-10T15:30:32Z</time>
      </trkpt>
      <trkpt lat="43.34792" lon="2.71808">
        <ele>207.3</ele>
        <time>2014-11-10T15:30:39Z</time>
      </trkpt>
      <trkpt lat="43.34793" lon="2.71836">
        <ele>207.3</ele>
        <time>2014-11-10T15:30:57Z</time>
      </trkpt>
      <trkpt lat="43.34797" lon="2.71856">
        <ele>207.3</ele>
        <time>2014-11-10T15:31:15Z</time>
      </trkpt>
      <trkpt lat="43.34809" lon="2.71879">
        <ele>207.78</ele>
        <time>2014-11-10T15:31:34Z</time>
      </trkpt>
      <trkpt lat="43.34818" lon="2.71911">
        <ele>207.3</ele>
        <time>2014-11-10T15:31:55Z</time>
      </trkpt>
      <trkpt lat="43.34823" lon="2.71931">
        <ele>207.78</ele>
        <time>2014-11-10T15:32:08Z</time>
      </trkpt>
      <trkpt lat="43.34833" lon="2.71961">
        <ele>207.78</ele>
        <time>2014-11-10T15:32:29Z</time>
      </trkpt>
      <trkpt lat="43.34837" lon="2.71967">
        <ele>207.78</ele>
        <time>2014-11-10T15:32:37Z</time>
      </trkpt>
      <trkpt lat="43.34864" lon="2.71986">
        <ele>207.78</ele>
        <time>2014-11-10T15:33:00Z</time>
      </trkpt>
      <trkpt lat="43.34865" lon="2.71987">
        <ele>200.57</ele>
        <time>2014-11-10T15:33:01Z</time>
      </trkpt>
      <trkpt lat="43.34867" lon="2.71988">
        <ele>209.7</ele>
        <time>2014-11-10T15:33:02Z</time>
      </trkpt>
      <trkpt lat="43.34883" lon="2.72001">
        <ele>208.26</ele>
        <time>2014-11-10T15:33:19Z</time>
      </trkpt>
      <trkpt lat="43.349" lon="2.72015">
        <ele>208.26</ele>
        <time>2014-11-10T15:33:37Z</time>
      </trkpt>
      <trkpt lat="43.3491" lon="2.72041">
        <ele>209.22</ele>
        <time>2014-11-10T15:33:56Z</time>
      </trkpt>
      <trkpt lat="43.34914" lon="2.72049">
        <ele>209.22</ele>
        <time>2014-11-10T15:34:03Z</time>
      </trkpt>
      <trkpt lat="43.34915" lon="2.72057">
        <ele>209.7</ele>
        <time>2014-11-10T15:34:09Z</time>
      </trkpt>
      <trkpt lat="43.34918" lon="2.72099">
        <ele>209.22</ele>
        <time>2014-11-10T15:34:33Z</time>
      </trkpt>
      <trkpt lat="43.34915" lon="2.72136">
        <ele>209.22</ele>
        <time>2014-11-10T15:34:57Z</time>
      </trkpt>
      <trkpt lat="43.34911" lon="2.72169">
        <ele>208.74</ele>
        <time>2014-11-10T15:35:19Z</time>
      </trkpt>
      <trkpt lat="43.3491" lon="2.72199">
        <ele>207.3</ele>
        <time>2014-11-10T15:35:38Z</time>
      </trkpt>
      <trkpt lat="43.34921" lon="2.72234">
        <ele>207.3</ele>
        <time>2014-11-10T15:36:01Z</time>
      </trkpt>
      <trkpt lat="43.34935" lon="2.72264">
        <ele>205.86</ele>
        <time>2014-11-10T15:36:24Z</time>
      </trkpt>
      <trkpt lat="43.34942" lon="2.72297">
        <ele>203.94</ele>
        <time>2014-11-10T15:36:47Z</time>
      </trkpt>
      <trkpt lat="43.34946" lon="2.72324">
        <ele>202.98</ele>
        <time>2014-11-10T15:37:07Z</time>
      </trkpt>
      <trkpt lat="43.34942" lon="2.72351">
        <ele>201.05</ele>
        <time>2014-11-10T15:37:30Z</time>
      </trkpt>
      <trkpt lat="43.34942" lon="2.72353">
        <ele>200.57</ele>
        <time>2014-11-10T15:37:44Z</time>
      </trkpt>
      <trkpt lat="43.34937" lon="2.72378">
        <ele>199.13</ele>
        <time>2014-11-10T15:38:01Z</time>
      </trkpt>
      <trkpt lat="43.34928" lon="2.72416">
        <ele>197.21</ele>
        <time>2014-11-10T15:38:24Z</time>
      </trkpt>
      <trkpt lat="43.34918" lon="2.72444">
        <ele>195.77</ele>
        <time>2014-11-10T15:38:42Z</time>
      </trkpt>
      <trkpt lat="43.34903" lon="2.72473">
        <ele>193.36</ele>
        <time>2014-11-10T15:39:01Z</time>
      </trkpt>
      <trkpt lat="43.34893" lon="2.72488">
        <ele>192.88</ele>
        <time>2014-11-10T15:39:22Z</time>
      </trkpt>
      <trkpt lat="43.34892" lon="2.72493">
        <ele>192.4</ele>
        <time>2014-11-10T15:39:40Z</time>
      </trkpt>
      <trkpt lat="43.34878" lon="2.72523">
        <ele>190.96</ele>
        <time>2014-11-10T15:40:01Z</time>
      </trkpt>
      <trkpt lat="43.34868" lon="2.7255">
        <ele>189.04</ele>
        <time>2014-11-10T15:40:21Z</time>
      </trkpt>
      <trkpt lat="43.34848" lon="2.72567">
        <ele>186.63</ele>
        <time>2014-11-10T15:40:43Z</time>
      </trkpt>
      <trkpt lat="43.34834" lon="2.72573">
        <ele>185.67</ele>
        <time>2014-11-10T15:40:57Z</time>
      </trkpt>
      <trkpt lat="43.34833" lon="2.72573">
        <ele>186.15</ele>
        <time>2014-11-10T15:40:58Z</time>
      </trkpt>
      <trkpt lat="43.34813" lon="2.72579">
        <ele>185.19</ele>
        <time>2014-11-10T15:41:18Z</time>
      </trkpt>
      <trkpt lat="43.34798" lon="2.72602">
        <ele>183.75</ele>
        <time>2014-11-10T15:41:37Z</time>
      </trkpt>
      <trkpt lat="43.34794" lon="2.72625">
        <ele>183.75</ele>
        <time>2014-11-10T15:41:56Z</time>
      </trkpt>
      <trkpt lat="43.34792" lon="2.72632">
        <ele>184.23</ele>
        <time>2014-11-10T15:42:06Z</time>
      </trkpt>
      <trkpt lat="43.3479" lon="2.72653">
        <ele>183.27</ele>
        <time>2014-11-10T15:42:20Z</time>
      </trkpt>
      <trkpt lat="43.34792" lon="2.72681">
        <ele>183.27</ele>
        <time>2014-11-10T15:42:39Z</time>
      </trkpt>
      <trkpt lat="43.34795" lon="2.72697">
        <ele>183.27</ele>
        <time>2014-11-10T15:42:51Z</time>
      </trkpt>
      <trkpt lat="43.34798" lon="2.72713">
        <ele>183.27</ele>
        <time>2014-11-10T15:42:59Z</time>
      </trkpt>
      <trkpt lat="43.348" lon="2.72741">
        <ele>183.27</ele>
        <time>2014-11-10T15:43:16Z</time>
      </trkpt>
      <trkpt lat="43.348" lon="2.72771">
        <ele>181.83</ele>
        <time>2014-11-10T15:43:36Z</time>
      </trkpt>
      <trkpt lat="43.34804" lon="2.72802">
        <ele>180.87</ele>
        <time>2014-11-10T15:43:54Z</time>
      </trkpt>
      <trkpt lat="43.34817" lon="2.72836">
        <ele>180.87</ele>
        <time>2014-11-10T15:44:16Z</time>
      </trkpt>
      <trkpt lat="43.3483" lon="2.72866">
        <ele>180.87</ele>
        <time>2014-11-10T15:44:35Z</time>
      </trkpt>
      <trkpt lat="43.34855" lon="2.72886">
        <ele>181.83</ele>
        <time>2014-11-10T15:45:00Z</time>
      </trkpt>
      <trkpt lat="43.34877" lon="2.72904">
        <ele>183.27</ele>
        <time>2014-11-10T15:45:23Z</time>
      </trkpt>
      <trkpt lat="43.34893" lon="2.72913">
        <ele>184.23</ele>
        <time>2014-11-10T15:45:38Z</time>
      </trkpt>
      <trkpt lat="43.3492" lon="2.72935">
        <ele>185.19</ele>
        <time>2014-11-10T15:46:03Z</time>
      </trkpt>
      <trkpt lat="43.34932" lon="2.72964">
        <ele>186.15</ele>
        <time>2014-11-10T15:46:25Z</time>
      </trkpt>
      <trkpt lat="43.34937" lon="2.72983">
        <ele>186.63</ele>
        <time>2014-11-10T15:46:38Z</time>
      </trkpt>
      <trkpt lat="43.34947" lon="2.73005">
        <ele>187.11</ele>
        <time>2014-11-10T15:46:58Z</time>
      </trkpt>
      <trkpt lat="43.34954" lon="2.73036">
        <ele>187.11</ele>
        <time>2014-11-10T15:47:16Z</time>
      </trkpt>
      <trkpt lat="43.34965" lon="2.73062">
        <ele>187.59</ele>
        <time>2014-11-10T15:47:35Z</time>
      </trkpt>
      <trkpt lat="43.34981" lon="2.7308">
        <ele>189.52</ele>
        <time>2014-11-10T15:47:54Z</time>
      </trkpt>
      <trkpt lat="43.34997" lon="2.73084">
        <ele>190.48</ele>
        <time>2014-11-10T15:48:11Z</time>
      </trkpt>
      <trkpt lat="43.35023" lon="2.73085">
        <ele>191.44</ele>
        <time>2014-11-10T15:48:35Z</time>
      </trkpt>
      <trkpt lat="43.35032" lon="2.73089">
        <ele>191.44</ele>
        <time>2014-11-10T15:48:46Z</time>
      </trkpt>
      <trkpt lat="43.35034" lon="2.7309">
        <ele>191.92</ele>
        <time>2014-11-10T15:48:48Z</time>
      </trkpt>
      <trkpt lat="43.35055" lon="2.73101">
        <ele>192.88</ele>
        <time>2014-11-10T15:49:09Z</time>
      </trkpt>
      <trkpt lat="43.35076" lon="2.73119">
        <ele>193.84</ele>
        <time>2014-11-10T15:49:30Z</time>
      </trkpt>
      <trkpt lat="43.35088" lon="2.73143">
        <ele>194.8</ele>
        <time>2014-11-10T15:49:51Z</time>
      </trkpt>
      <trkpt lat="43.351" lon="2.73166">
        <ele>195.77</ele>
        <time>2014-11-10T15:50:12Z</time>
      </trkpt>
      <trkpt lat="43.35101" lon="2.73185">
        <ele>195.28</ele>
        <time>2014-11-10T15:50:25Z</time>
      </trkpt>
      <trkpt lat="43.35111" lon="2.73216">
        <ele>196.25</ele>
        <time>2014-11-10T15:50:47Z</time>
      </trkpt>
      <trkpt lat="43.35119" lon="2.7324">
        <ele>195.77</ele>
        <time>2014-11-10T15:51:04Z</time>
      </trkpt>
      <trkpt lat="43.35123" lon="2.73258">
        <ele>196.73</ele>
        <time>2014-11-10T15:51:21Z</time>
      </trkpt>
      <trkpt lat="43.35122" lon="2.73257">
        <ele>196.73</ele>
        <time>2014-11-10T15:51:22Z</time>
      </trkpt>
      <trkpt lat="43.35122" lon="2.7325">
        <ele>196.25</ele>
        <time>2014-11-10T15:51:28Z</time>
      </trkpt>
      <trkpt lat="43.35129" lon="2.73259">
        <ele>197.21</ele>
        <time>2014-11-10T15:51:45Z</time>
      </trkpt>
      <trkpt lat="43.35128" lon="2.73262">
        <ele>197.21</ele>
        <time>2014-11-10T15:52:11Z</time>
      </trkpt>
      <trkpt lat="43.35129" lon="2.73271">
        <ele>196.73</ele>
        <time>2014-11-10T15:52:22Z</time>
      </trkpt>
      <trkpt lat="43.35129" lon="2.73274">
        <ele>196.73</ele>
        <time>2014-11-10T15:52:24Z</time>
      </trkpt>
      <trkpt lat="43.35129" lon="2.73284">
        <ele>197.21</ele>
        <time>2014-11-10T15:52:39Z</time>
      </trkpt>
      <trkpt lat="43.35131" lon="2.73293">
        <ele>197.69</ele>
        <time>2014-11-10T15:52:53Z</time>
      </trkpt>
      <trkpt lat="43.35133" lon="2.73311">
        <ele>197.69</ele>
        <time>2014-11-10T15:53:14Z</time>
      </trkpt>
      <trkpt lat="43.35135" lon="2.73309">
        <ele>197.21</ele>
        <time>2014-11-10T15:53:37Z</time>
      </trkpt>
      <trkpt lat="43.35132" lon="2.73312">
        <ele>196.73</ele>
        <time>2014-11-10T15:53:46Z</time>
      </trkpt>
      <trkpt lat="43.35132" lon="2.73316">
        <ele>197.21</ele>
        <time>2014-11-10T15:53:49Z</time>
      </trkpt>
      <trkpt lat="43.3513" lon="2.73329">
        <ele>197.21</ele>
        <time>2014-11-10T15:54:04Z</time>
      </trkpt>
      <trkpt lat="43.35128" lon="2.73358">
        <ele>197.21</ele>
        <time>2014-11-10T15:54:25Z</time>
      </trkpt>
      <trkpt lat="43.35131" lon="2.73391">
        <ele>196.73</ele>
        <time>2014-11-10T15:54:46Z</time>
      </trkpt>
      <trkpt lat="43.35132" lon="2.73391">
        <ele>197.21</ele>
        <time>2014-11-10T15:55:01Z</time>
      </trkpt>
      <trkpt lat="43.35135" lon="2.73405">
        <ele>196.73</ele>
        <time>2014-11-10T15:55:19Z</time>
      </trkpt>
      <trkpt lat="43.3514" lon="2.73442">
        <ele>196.73</ele>
        <time>2014-11-10T15:55:41Z</time>
      </trkpt>
      <trkpt lat="43.3514" lon="2.73445">
        <ele>197.21</ele>
        <time>2014-11-10T15:55:49Z</time>
      </trkpt>
      <trkpt lat="43.35146" lon="2.73477">
        <ele>196.73</ele>
        <time>2014-11-10T15:56:11Z</time>
      </trkpt>
      <trkpt lat="43.35143" lon="2.73508">
        <ele>196.25</ele>
        <time>2014-11-10T15:56:33Z</time>
      </trkpt>
      <trkpt lat="43.35135" lon="2.73535">
        <ele>196.25</ele>
        <time>2014-11-10T15:56:52Z</time>
      </trkpt>
      <trkpt lat="43.35135" lon="2.73559">
        <ele>195.77</ele>
        <time>2014-11-10T15:57:12Z</time>
      </trkpt>
      <trkpt lat="43.35138" lon="2.73595">
        <ele>197.21</ele>
        <time>2014-11-10T15:57:34Z</time>
      </trkpt>
      <trkpt lat="43.3514" lon="2.73598">
        <ele>197.21</ele>
        <time>2014-11-10T15:57:36Z</time>
      </trkpt>
      <trkpt lat="43.35164" lon="2.73626">
        <ele>198.17</ele>
        <time>2014-11-10T15:58:02Z</time>
      </trkpt>
      <trkpt lat="43.35188" lon="2.73643">
        <ele>198.65</ele>
        <time>2014-11-10T15:58:25Z</time>
      </trkpt>
      <trkpt lat="43.35209" lon="2.73671">
        <ele>198.17</ele>
        <time>2014-11-10T15:58:48Z</time>
      </trkpt>
      <trkpt lat="43.35224" lon="2.73692">
        <ele>197.21</ele>
        <time>2014-11-10T15:59:08Z</time>
      </trkpt>
      <trkpt lat="43.35227" lon="2.7371">
        <ele>196.25</ele>
        <time>2014-11-10T15:59:25Z</time>
      </trkpt>
      <trkpt lat="43.35227" lon="2.73714">
        <ele>196.73</ele>
        <time>2014-11-10T15:59:28Z</time>
      </trkpt>
      <trkpt lat="43.35223" lon="2.73754">
        <ele>195.28</ele>
        <time>2014-11-10T15:59:51Z</time>
      </trkpt>
      <trkpt lat="43.35209" lon="2.73786">
        <ele>193.84</ele>
        <time>2014-11-10T16:00:13Z</time>
      </trkpt>
      <trkpt lat="43.35188" lon="2.73816">
        <ele>191.44</ele>
        <time>2014-11-10T16:00:37Z</time>
      </trkpt>
      <trkpt lat="43.35171" lon="2.73841">
        <ele>190</ele>
        <time>2014-11-10T16:00:59Z</time>
      </trkpt>
      <trkpt lat="43.35169" lon="2.73846">
        <ele>189.52</ele>
        <time>2014-11-10T16:01:03Z</time>
      </trkpt>
      <trkpt lat="43.35156" lon="2.73871">
        <ele>187.59</ele>
        <time>2014-11-10T16:01:23Z</time>
      </trkpt>
      <trkpt lat="43.35146" lon="2.73903">
        <ele>186.63</ele>
        <time>2014-11-10T16:01:43Z</time>
      </trkpt>
      <trkpt lat="43.3514" lon="2.73931">
        <ele>184.71</ele>
        <time>2014-11-10T16:02:02Z</time>
      </trkpt>
      <trkpt lat="43.35137" lon="2.73965">
        <ele>183.75</ele>
        <time>2014-11-10T16:02:24Z</time>
      </trkpt>
      <trkpt lat="43.35136" lon="2.73997">
        <ele>181.83</ele>
        <time>2014-11-10T16:02:46Z</time>
      </trkpt>
      <trkpt lat="43.35137" lon="2.73996">
        <ele>182.31</ele>
        <time>2014-11-10T16:03:07Z</time>
      </trkpt>
      <trkpt lat="43.35136" lon="2.73997">
        <ele>178.46</ele>
        <time>2014-11-10T16:03:16Z</time>
      </trkpt>
      <trkpt lat="43.35136" lon="2.73998">
        <ele>182.31</ele>
        <time>2014-11-10T16:03:17Z</time>
      </trkpt>
    </trkseg>
  </trk>
</gpx>